<?xml version="1.0" encoding="UTF-8" standalone="no" ?>
<gpx xmlns="http://www.topografix.com/GPX/1/1" xmlns:xsi="http://www.w3.org/2001/XMLSchema-instance" xsi:schemaLocation="http://www.topografix.com/GPX/1/1 http://www.topografix.com/GPX/1/1/gpx.xsd" version="1.1" creator="VisuGPX - https://www.visugpx.com">
  <metadata>
    <name>Randonnée de Dommartin les Remiremont</name>
    <desc><![CDATA[Randonnée du 13 juin 2011 à Dommartin les Remiremont]]></desc>
  </metadata>
  <trk>
    <name><![CDATA[Randonnée de Dommartin les Remiremont_1]]></name>
    <trkseg>
      <trkpt lat="47.99887" lon="6.64428">
        <ele>406</ele>
        <time>2011-06-13T06:42:13Z</time>
      </trkpt>
      <trkpt lat="47.99859" lon="6.64443">
        <ele>408</ele>
        <time>2011-06-13T06:42:32Z</time>
      </trkpt>
      <trkpt lat="47.99857" lon="6.64487">
        <ele>407</ele>
        <time>2011-06-13T06:42:42Z</time>
      </trkpt>
      <trkpt lat="47.99862" lon="6.64533">
        <ele>406</ele>
        <time>2011-06-13T06:42:52Z</time>
      </trkpt>
      <trkpt lat="47.99899" lon="6.6454">
        <ele>405</ele>
        <time>2011-06-13T06:43:02Z</time>
      </trkpt>
      <trkpt lat="47.99954" lon="6.64538">
        <ele>402</ele>
        <time>2011-06-13T06:43:12Z</time>
      </trkpt>
      <trkpt lat="48.00018" lon="6.64525">
        <ele>398</ele>
        <time>2011-06-13T06:43:22Z</time>
      </trkpt>
      <trkpt lat="48.00085" lon="6.64521">
        <ele>396</ele>
        <time>2011-06-13T06:43:32Z</time>
      </trkpt>
      <trkpt lat="48.00143" lon="6.64542">
        <ele>396</ele>
        <time>2011-06-13T06:43:42Z</time>
      </trkpt>
      <trkpt lat="48.00197" lon="6.64559">
        <ele>396</ele>
        <time>2011-06-13T06:43:52Z</time>
      </trkpt>
      <trkpt lat="48.00249" lon="6.64576">
        <ele>396</ele>
        <time>2011-06-13T06:44:02Z</time>
      </trkpt>
      <trkpt lat="48.00259" lon="6.64627">
        <ele>396</ele>
        <time>2011-06-13T06:44:12Z</time>
      </trkpt>
      <trkpt lat="48.00242" lon="6.64702">
        <ele>396</ele>
        <time>2011-06-13T06:44:22Z</time>
      </trkpt>
      <trkpt lat="48.00229" lon="6.64782">
        <ele>396</ele>
        <time>2011-06-13T06:44:32Z</time>
      </trkpt>
      <trkpt lat="48.00229" lon="6.64869">
        <ele>396</ele>
        <time>2011-06-13T06:44:42Z</time>
      </trkpt>
      <trkpt lat="48.00246" lon="6.64951">
        <ele>396</ele>
        <time>2011-06-13T06:44:52Z</time>
      </trkpt>
      <trkpt lat="48.00269" lon="6.65032">
        <ele>396</ele>
        <time>2011-06-13T06:45:03Z</time>
      </trkpt>
      <trkpt lat="48.00289" lon="6.65104">
        <ele>396</ele>
        <time>2011-06-13T06:45:13Z</time>
      </trkpt>
      <trkpt lat="48.00319" lon="6.65158">
        <ele>396</ele>
        <time>2011-06-13T06:45:24Z</time>
      </trkpt>
      <trkpt lat="48.0037" lon="6.65148">
        <ele>396</ele>
        <time>2011-06-13T06:45:34Z</time>
      </trkpt>
      <trkpt lat="48.00415" lon="6.65182">
        <ele>396</ele>
        <time>2011-06-13T06:45:44Z</time>
      </trkpt>
      <trkpt lat="48.00458" lon="6.65227">
        <ele>396</ele>
        <time>2011-06-13T06:45:55Z</time>
      </trkpt>
      <trkpt lat="48.00491" lon="6.65276">
        <ele>396</ele>
        <time>2011-06-13T06:46:05Z</time>
      </trkpt>
      <trkpt lat="48.00511" lon="6.65333">
        <ele>397</ele>
        <time>2011-06-13T06:46:15Z</time>
      </trkpt>
      <trkpt lat="48.00524" lon="6.65368">
        <ele>398</ele>
        <time>2011-06-13T06:46:25Z</time>
      </trkpt>
      <trkpt lat="48.00502" lon="6.65427">
        <ele>400</ele>
        <time>2011-06-13T06:46:35Z</time>
      </trkpt>
      <trkpt lat="48.00481" lon="6.65485">
        <ele>402</ele>
        <time>2011-06-13T06:46:45Z</time>
      </trkpt>
      <trkpt lat="48.00465" lon="6.65525">
        <ele>402</ele>
        <time>2011-06-13T06:46:55Z</time>
      </trkpt>
      <trkpt lat="48.00447" lon="6.65578">
        <ele>403</ele>
        <time>2011-06-13T06:47:05Z</time>
      </trkpt>
      <trkpt lat="48.00417" lon="6.65622">
        <ele>405</ele>
        <time>2011-06-13T06:47:15Z</time>
      </trkpt>
      <trkpt lat="48.00384" lon="6.65647">
        <ele>407</ele>
        <time>2011-06-13T06:47:25Z</time>
      </trkpt>
      <trkpt lat="48.00359" lon="6.65672">
        <ele>408</ele>
        <time>2011-06-13T06:47:35Z</time>
      </trkpt>
      <trkpt lat="48.00346" lon="6.65706">
        <ele>412</ele>
        <time>2011-06-13T06:47:45Z</time>
      </trkpt>
      <trkpt lat="48.00335" lon="6.6574">
        <ele>414</ele>
        <time>2011-06-13T06:47:55Z</time>
      </trkpt>
      <trkpt lat="48.00323" lon="6.65774">
        <ele>415</ele>
        <time>2011-06-13T06:48:05Z</time>
      </trkpt>
      <trkpt lat="48.00307" lon="6.65801">
        <ele>417</ele>
        <time>2011-06-13T06:48:15Z</time>
      </trkpt>
      <trkpt lat="48.0029" lon="6.65824">
        <ele>420</ele>
        <time>2011-06-13T06:48:25Z</time>
      </trkpt>
      <trkpt lat="48.00297" lon="6.65846">
        <ele>422</ele>
        <time>2011-06-13T06:48:35Z</time>
      </trkpt>
      <trkpt lat="48.00321" lon="6.65839">
        <ele>423</ele>
        <time>2011-06-13T06:48:45Z</time>
      </trkpt>
      <trkpt lat="48.00344" lon="6.65846">
        <ele>425</ele>
        <time>2011-06-13T06:48:56Z</time>
      </trkpt>
      <trkpt lat="48.00361" lon="6.65864">
        <ele>430</ele>
        <time>2011-06-13T06:49:06Z</time>
      </trkpt>
      <trkpt lat="48.00387" lon="6.65867">
        <ele>432</ele>
        <time>2011-06-13T06:49:16Z</time>
      </trkpt>
      <trkpt lat="48.00418" lon="6.6586">
        <ele>432</ele>
        <time>2011-06-13T06:49:26Z</time>
      </trkpt>
      <trkpt lat="48.00446" lon="6.65856">
        <ele>432</ele>
        <time>2011-06-13T06:49:36Z</time>
      </trkpt>
      <trkpt lat="48.00471" lon="6.65854">
        <ele>433</ele>
        <time>2011-06-13T06:49:46Z</time>
      </trkpt>
      <trkpt lat="48.00495" lon="6.65855">
        <ele>433</ele>
        <time>2011-06-13T06:49:56Z</time>
      </trkpt>
      <trkpt lat="48.00517" lon="6.65862">
        <ele>437</ele>
        <time>2011-06-13T06:50:06Z</time>
      </trkpt>
      <trkpt lat="48.00537" lon="6.65877">
        <ele>439</ele>
        <time>2011-06-13T06:50:16Z</time>
      </trkpt>
      <trkpt lat="48.00556" lon="6.65892">
        <ele>439</ele>
        <time>2011-06-13T06:50:26Z</time>
      </trkpt>
      <trkpt lat="48.00574" lon="6.65901">
        <ele>440</ele>
        <time>2011-06-13T06:50:36Z</time>
      </trkpt>
      <trkpt lat="48.00585" lon="6.65919">
        <ele>445</ele>
        <time>2011-06-13T06:50:46Z</time>
      </trkpt>
      <trkpt lat="48.00575" lon="6.65929">
        <ele>450</ele>
        <time>2011-06-13T06:50:56Z</time>
      </trkpt>
      <trkpt lat="48.00562" lon="6.65933">
        <ele>456</ele>
        <time>2011-06-13T06:51:06Z</time>
      </trkpt>
      <trkpt lat="48.00549" lon="6.65935">
        <ele>461</ele>
        <time>2011-06-13T06:51:16Z</time>
      </trkpt>
      <trkpt lat="48.00535" lon="6.65941">
        <ele>467</ele>
        <time>2011-06-13T06:51:27Z</time>
      </trkpt>
      <trkpt lat="48.00522" lon="6.65947">
        <ele>472</ele>
        <time>2011-06-13T06:51:38Z</time>
      </trkpt>
      <trkpt lat="48.0051" lon="6.65953">
        <ele>473</ele>
        <time>2011-06-13T06:51:48Z</time>
      </trkpt>
      <trkpt lat="48.00498" lon="6.6596">
        <ele>473</ele>
        <time>2011-06-13T06:51:58Z</time>
      </trkpt>
      <trkpt lat="48.00485" lon="6.65967">
        <ele>473</ele>
        <time>2011-06-13T06:52:08Z</time>
      </trkpt>
      <trkpt lat="48.00473" lon="6.65975">
        <ele>473</ele>
        <time>2011-06-13T06:52:18Z</time>
      </trkpt>
      <trkpt lat="48.0046" lon="6.65987">
        <ele>476</ele>
        <time>2011-06-13T06:52:28Z</time>
      </trkpt>
      <trkpt lat="48.00446" lon="6.65996">
        <ele>484</ele>
        <time>2011-06-13T06:52:38Z</time>
      </trkpt>
      <trkpt lat="48.00437" lon="6.66004">
        <ele>486</ele>
        <time>2011-06-13T06:52:48Z</time>
      </trkpt>
      <trkpt lat="48.00426" lon="6.66021">
        <ele>486</ele>
        <time>2011-06-13T06:52:59Z</time>
      </trkpt>
      <trkpt lat="48.00415" lon="6.66034">
        <ele>486</ele>
        <time>2011-06-13T06:53:09Z</time>
      </trkpt>
      <trkpt lat="48.00402" lon="6.66045">
        <ele>495</ele>
        <time>2011-06-13T06:53:19Z</time>
      </trkpt>
      <trkpt lat="48.00403" lon="6.66057">
        <ele>498</ele>
        <time>2011-06-13T06:53:29Z</time>
      </trkpt>
      <trkpt lat="48.0041" lon="6.66056">
        <ele>489</ele>
        <time>2011-06-13T06:53:41Z</time>
      </trkpt>
      <trkpt lat="48.00414" lon="6.66058">
        <ele>475</ele>
        <time>2011-06-13T06:53:51Z</time>
      </trkpt>
      <trkpt lat="48.00423" lon="6.66051">
        <ele>474</ele>
        <time>2011-06-13T06:54:02Z</time>
      </trkpt>
      <trkpt lat="48.00433" lon="6.66048">
        <ele>481</ele>
        <time>2011-06-13T06:54:12Z</time>
      </trkpt>
      <trkpt lat="48.00449" lon="6.66038">
        <ele>483</ele>
        <time>2011-06-13T06:54:23Z</time>
      </trkpt>
      <trkpt lat="48.00465" lon="6.6603">
        <ele>484</ele>
        <time>2011-06-13T06:54:33Z</time>
      </trkpt>
      <trkpt lat="48.00485" lon="6.66025">
        <ele>485</ele>
        <time>2011-06-13T06:54:43Z</time>
      </trkpt>
      <trkpt lat="48.00514" lon="6.66014">
        <ele>485</ele>
        <time>2011-06-13T06:54:53Z</time>
      </trkpt>
      <trkpt lat="48.00542" lon="6.66008">
        <ele>485</ele>
        <time>2011-06-13T06:55:03Z</time>
      </trkpt>
      <trkpt lat="48.00567" lon="6.66005">
        <ele>485</ele>
        <time>2011-06-13T06:55:13Z</time>
      </trkpt>
      <trkpt lat="48.00578" lon="6.66011">
        <ele>493</ele>
        <time>2011-06-13T06:55:23Z</time>
      </trkpt>
      <trkpt lat="48.00603" lon="6.66028">
        <ele>503</ele>
        <time>2011-06-13T06:55:33Z</time>
      </trkpt>
      <trkpt lat="48.00626" lon="6.6605">
        <ele>506</ele>
        <time>2011-06-13T06:55:43Z</time>
      </trkpt>
      <trkpt lat="48.00641" lon="6.66075">
        <ele>503</ele>
        <time>2011-06-13T06:55:53Z</time>
      </trkpt>
      <trkpt lat="48.00653" lon="6.66098">
        <ele>503</ele>
        <time>2011-06-13T06:56:03Z</time>
      </trkpt>
      <trkpt lat="48.00666" lon="6.66123">
        <ele>503</ele>
        <time>2011-06-13T06:56:13Z</time>
      </trkpt>
      <trkpt lat="48.00674" lon="6.66152">
        <ele>503</ele>
        <time>2011-06-13T06:56:23Z</time>
      </trkpt>
      <trkpt lat="48.00681" lon="6.66167">
        <ele>510</ele>
        <time>2011-06-13T06:56:33Z</time>
      </trkpt>
      <trkpt lat="48.00693" lon="6.66184">
        <ele>515</ele>
        <time>2011-06-13T06:56:44Z</time>
      </trkpt>
      <trkpt lat="48.00703" lon="6.66198">
        <ele>520</ele>
        <time>2011-06-13T06:56:54Z</time>
      </trkpt>
      <trkpt lat="48.00716" lon="6.66213">
        <ele>524</ele>
        <time>2011-06-13T06:57:05Z</time>
      </trkpt>
      <trkpt lat="48.00731" lon="6.66225">
        <ele>524</ele>
        <time>2011-06-13T06:57:15Z</time>
      </trkpt>
      <trkpt lat="48.00744" lon="6.66243">
        <ele>524</ele>
        <time>2011-06-13T06:57:25Z</time>
      </trkpt>
      <trkpt lat="48.00756" lon="6.66263">
        <ele>524</ele>
        <time>2011-06-13T06:57:35Z</time>
      </trkpt>
      <trkpt lat="48.00763" lon="6.66292">
        <ele>524</ele>
        <time>2011-06-13T06:57:45Z</time>
      </trkpt>
      <trkpt lat="48.00779" lon="6.66326">
        <ele>524</ele>
        <time>2011-06-13T06:57:55Z</time>
      </trkpt>
      <trkpt lat="48.00816" lon="6.66375">
        <ele>524</ele>
        <time>2011-06-13T06:58:06Z</time>
      </trkpt>
      <trkpt lat="48.0086" lon="6.66399">
        <ele>520</ele>
        <time>2011-06-13T06:58:16Z</time>
      </trkpt>
      <trkpt lat="48.00904" lon="6.66417">
        <ele>517</ele>
        <time>2011-06-13T06:58:26Z</time>
      </trkpt>
      <trkpt lat="48.0096" lon="6.66431">
        <ele>508</ele>
        <time>2011-06-13T06:58:36Z</time>
      </trkpt>
      <trkpt lat="48.00998" lon="6.66441">
        <ele>505</ele>
        <time>2011-06-13T06:58:46Z</time>
      </trkpt>
      <trkpt lat="48.0104" lon="6.66465">
        <ele>505</ele>
        <time>2011-06-13T06:58:56Z</time>
      </trkpt>
      <trkpt lat="48.01073" lon="6.66502">
        <ele>502</ele>
        <time>2011-06-13T06:59:06Z</time>
      </trkpt>
      <trkpt lat="48.01088" lon="6.6653">
        <ele>492</ele>
        <time>2011-06-13T06:59:16Z</time>
      </trkpt>
      <trkpt lat="48.01099" lon="6.66561">
        <ele>491</ele>
        <time>2011-06-13T06:59:26Z</time>
      </trkpt>
      <trkpt lat="48.011" lon="6.66593">
        <ele>491</ele>
        <time>2011-06-13T06:59:36Z</time>
      </trkpt>
      <trkpt lat="48.011" lon="6.66626">
        <ele>497</ele>
        <time>2011-06-13T06:59:46Z</time>
      </trkpt>
      <trkpt lat="48.01104" lon="6.6666">
        <ele>498</ele>
        <time>2011-06-13T06:59:56Z</time>
      </trkpt>
      <trkpt lat="48.0111" lon="6.6669">
        <ele>498</ele>
        <time>2011-06-13T07:00:06Z</time>
      </trkpt>
      <trkpt lat="48.01113" lon="6.66715">
        <ele>498</ele>
        <time>2011-06-13T07:00:16Z</time>
      </trkpt>
      <trkpt lat="48.01114" lon="6.66743">
        <ele>499</ele>
        <time>2011-06-13T07:00:26Z</time>
      </trkpt>
      <trkpt lat="48.01115" lon="6.66763">
        <ele>503</ele>
        <time>2011-06-13T07:00:38Z</time>
      </trkpt>
      <trkpt lat="48.01122" lon="6.6676">
        <ele>506</ele>
        <time>2011-06-13T07:00:48Z</time>
      </trkpt>
      <trkpt lat="48.01115" lon="6.66768">
        <ele>506</ele>
        <time>2011-06-13T07:00:58Z</time>
      </trkpt>
      <trkpt lat="48.01111" lon="6.66779">
        <ele>508</ele>
        <time>2011-06-13T07:01:08Z</time>
      </trkpt>
      <trkpt lat="48.01109" lon="6.6679">
        <ele>509</ele>
        <time>2011-06-13T07:01:19Z</time>
      </trkpt>
      <trkpt lat="48.01106" lon="6.66798">
        <ele>510</ele>
        <time>2011-06-13T07:01:31Z</time>
      </trkpt>
      <trkpt lat="48.01097" lon="6.66809">
        <ele>514</ele>
        <time>2011-06-13T07:01:41Z</time>
      </trkpt>
      <trkpt lat="48.01093" lon="6.6682">
        <ele>516</ele>
        <time>2011-06-13T07:01:51Z</time>
      </trkpt>
      <trkpt lat="48.01087" lon="6.66829">
        <ele>519</ele>
        <time>2011-06-13T07:02:03Z</time>
      </trkpt>
      <trkpt lat="48.01084" lon="6.66835">
        <ele>519</ele>
        <time>2011-06-13T07:02:14Z</time>
      </trkpt>
      <trkpt lat="48.01082" lon="6.66831">
        <ele>501</ele>
        <time>2011-06-13T07:02:28Z</time>
      </trkpt>
      <trkpt lat="48.01085" lon="6.66829">
        <ele>506</ele>
        <time>2011-06-13T07:02:39Z</time>
      </trkpt>
      <trkpt lat="48.01085" lon="6.66825">
        <ele>506</ele>
        <time>2011-06-13T07:02:49Z</time>
      </trkpt>
      <trkpt lat="48.01083" lon="6.66831">
        <ele>506</ele>
        <time>2011-06-13T07:02:59Z</time>
      </trkpt>
      <trkpt lat="48.01089" lon="6.66833">
        <ele>507</ele>
        <time>2011-06-13T07:03:11Z</time>
      </trkpt>
      <trkpt lat="48.01083" lon="6.6683">
        <ele>511</ele>
        <time>2011-06-13T07:03:21Z</time>
      </trkpt>
      <trkpt lat="48.01082" lon="6.66837">
        <ele>507</ele>
        <time>2011-06-13T07:03:35Z</time>
      </trkpt>
      <trkpt lat="48.01075" lon="6.66861">
        <ele>508</ele>
        <time>2011-06-13T07:03:45Z</time>
      </trkpt>
      <trkpt lat="48.01051" lon="6.66907">
        <ele>516</ele>
        <time>2011-06-13T07:03:55Z</time>
      </trkpt>
      <trkpt lat="48.0103" lon="6.66995">
        <ele>520</ele>
        <time>2011-06-13T07:04:05Z</time>
      </trkpt>
      <trkpt lat="48.01019" lon="6.67009">
        <ele>515</ele>
        <time>2011-06-13T07:04:15Z</time>
      </trkpt>
      <trkpt lat="48.01018" lon="6.6702">
        <ele>514</ele>
        <time>2011-06-13T07:04:25Z</time>
      </trkpt>
      <trkpt lat="48.01019" lon="6.67042">
        <ele>513</ele>
        <time>2011-06-13T07:04:37Z</time>
      </trkpt>
      <trkpt lat="48.01019" lon="6.6706">
        <ele>513</ele>
        <time>2011-06-13T07:04:47Z</time>
      </trkpt>
      <trkpt lat="48.01017" lon="6.67074">
        <ele>512</ele>
        <time>2011-06-13T07:04:57Z</time>
      </trkpt>
      <trkpt lat="48.01014" lon="6.67088">
        <ele>512</ele>
        <time>2011-06-13T07:05:07Z</time>
      </trkpt>
      <trkpt lat="48.01018" lon="6.67107">
        <ele>509</ele>
        <time>2011-06-13T07:05:17Z</time>
      </trkpt>
      <trkpt lat="48.01023" lon="6.67123">
        <ele>511</ele>
        <time>2011-06-13T07:05:27Z</time>
      </trkpt>
      <trkpt lat="48.0103" lon="6.67145">
        <ele>511</ele>
        <time>2011-06-13T07:05:37Z</time>
      </trkpt>
      <trkpt lat="48.01032" lon="6.67186">
        <ele>512</ele>
        <time>2011-06-13T07:05:47Z</time>
      </trkpt>
      <trkpt lat="48.01034" lon="6.67229">
        <ele>515</ele>
        <time>2011-06-13T07:05:57Z</time>
      </trkpt>
      <trkpt lat="48.01034" lon="6.67272">
        <ele>520</ele>
        <time>2011-06-13T07:06:07Z</time>
      </trkpt>
      <trkpt lat="48.01036" lon="6.67292">
        <ele>526</ele>
        <time>2011-06-13T07:06:17Z</time>
      </trkpt>
      <trkpt lat="48.01038" lon="6.67298">
        <ele>515</ele>
        <time>2011-06-13T07:06:28Z</time>
      </trkpt>
      <trkpt lat="48.01046" lon="6.67317">
        <ele>514</ele>
        <time>2011-06-13T07:06:38Z</time>
      </trkpt>
      <trkpt lat="48.01051" lon="6.67336">
        <ele>514</ele>
        <time>2011-06-13T07:06:50Z</time>
      </trkpt>
      <trkpt lat="48.01043" lon="6.67336">
        <ele>513</ele>
        <time>2011-06-13T07:07:01Z</time>
      </trkpt>
      <trkpt lat="48.0103" lon="6.67329">
        <ele>505</ele>
        <time>2011-06-13T07:07:11Z</time>
      </trkpt>
      <trkpt lat="48.01028" lon="6.67306">
        <ele>498</ele>
        <time>2011-06-13T07:07:21Z</time>
      </trkpt>
      <trkpt lat="48.01021" lon="6.67283">
        <ele>493</ele>
        <time>2011-06-13T07:07:31Z</time>
      </trkpt>
      <trkpt lat="48.01011" lon="6.67259">
        <ele>503</ele>
        <time>2011-06-13T07:07:41Z</time>
      </trkpt>
      <trkpt lat="48.01004" lon="6.67236">
        <ele>513</ele>
        <time>2011-06-13T07:07:51Z</time>
      </trkpt>
      <trkpt lat="48.01001" lon="6.67215">
        <ele>517</ele>
        <time>2011-06-13T07:08:01Z</time>
      </trkpt>
      <trkpt lat="48.00994" lon="6.67198">
        <ele>518</ele>
        <time>2011-06-13T07:08:11Z</time>
      </trkpt>
      <trkpt lat="48.00985" lon="6.6718">
        <ele>521</ele>
        <time>2011-06-13T07:08:22Z</time>
      </trkpt>
      <trkpt lat="48.00975" lon="6.67161">
        <ele>526</ele>
        <time>2011-06-13T07:08:33Z</time>
      </trkpt>
      <trkpt lat="48.00965" lon="6.67146">
        <ele>535</ele>
        <time>2011-06-13T07:08:43Z</time>
      </trkpt>
      <trkpt lat="48.00958" lon="6.67133">
        <ele>535</ele>
        <time>2011-06-13T07:08:53Z</time>
      </trkpt>
      <trkpt lat="48.00951" lon="6.67115">
        <ele>537</ele>
        <time>2011-06-13T07:09:03Z</time>
      </trkpt>
      <trkpt lat="48.00947" lon="6.67096">
        <ele>545</ele>
        <time>2011-06-13T07:09:13Z</time>
      </trkpt>
      <trkpt lat="48.00941" lon="6.67077">
        <ele>545</ele>
        <time>2011-06-13T07:09:23Z</time>
      </trkpt>
      <trkpt lat="48.00936" lon="6.67058">
        <ele>543</ele>
        <time>2011-06-13T07:09:34Z</time>
      </trkpt>
      <trkpt lat="48.00933" lon="6.67039">
        <ele>542</ele>
        <time>2011-06-13T07:09:44Z</time>
      </trkpt>
      <trkpt lat="48.00928" lon="6.67026">
        <ele>542</ele>
        <time>2011-06-13T07:09:54Z</time>
      </trkpt>
      <trkpt lat="48.00927" lon="6.67007">
        <ele>542</ele>
        <time>2011-06-13T07:10:04Z</time>
      </trkpt>
      <trkpt lat="48.00927" lon="6.66987">
        <ele>542</ele>
        <time>2011-06-13T07:10:14Z</time>
      </trkpt>
      <trkpt lat="48.00924" lon="6.66966">
        <ele>540</ele>
        <time>2011-06-13T07:10:24Z</time>
      </trkpt>
      <trkpt lat="48.00922" lon="6.66946">
        <ele>535</ele>
        <time>2011-06-13T07:10:34Z</time>
      </trkpt>
      <trkpt lat="48.0092" lon="6.66924">
        <ele>535</ele>
        <time>2011-06-13T07:10:44Z</time>
      </trkpt>
      <trkpt lat="48.00915" lon="6.669">
        <ele>535</ele>
        <time>2011-06-13T07:10:54Z</time>
      </trkpt>
      <trkpt lat="48.00914" lon="6.66874">
        <ele>541</ele>
        <time>2011-06-13T07:11:04Z</time>
      </trkpt>
      <trkpt lat="48.00918" lon="6.66852">
        <ele>542</ele>
        <time>2011-06-13T07:11:14Z</time>
      </trkpt>
      <trkpt lat="48.00925" lon="6.66831">
        <ele>542</ele>
        <time>2011-06-13T07:11:24Z</time>
      </trkpt>
      <trkpt lat="48.00922" lon="6.66809">
        <ele>542</ele>
        <time>2011-06-13T07:11:34Z</time>
      </trkpt>
      <trkpt lat="48.00909" lon="6.66799">
        <ele>551</ele>
        <time>2011-06-13T07:11:44Z</time>
      </trkpt>
      <trkpt lat="48.00898" lon="6.66801">
        <ele>554</ele>
        <time>2011-06-13T07:11:56Z</time>
      </trkpt>
      <trkpt lat="48.00891" lon="6.66812">
        <ele>563</ele>
        <time>2011-06-13T07:12:06Z</time>
      </trkpt>
      <trkpt lat="48.00882" lon="6.6683">
        <ele>570</ele>
        <time>2011-06-13T07:12:16Z</time>
      </trkpt>
      <trkpt lat="48.00875" lon="6.66854">
        <ele>575</ele>
        <time>2011-06-13T07:12:26Z</time>
      </trkpt>
      <trkpt lat="48.00867" lon="6.66882">
        <ele>583</ele>
        <time>2011-06-13T07:12:36Z</time>
      </trkpt>
      <trkpt lat="48.00857" lon="6.66903">
        <ele>593</ele>
        <time>2011-06-13T07:12:46Z</time>
      </trkpt>
      <trkpt lat="48.0085" lon="6.66931">
        <ele>592</ele>
        <time>2011-06-13T07:12:56Z</time>
      </trkpt>
      <trkpt lat="48.00844" lon="6.66961">
        <ele>592</ele>
        <time>2011-06-13T07:13:06Z</time>
      </trkpt>
      <trkpt lat="48.00842" lon="6.66996">
        <ele>588</ele>
        <time>2011-06-13T07:13:16Z</time>
      </trkpt>
      <trkpt lat="48.00838" lon="6.67029">
        <ele>587</ele>
        <time>2011-06-13T07:13:26Z</time>
      </trkpt>
      <trkpt lat="48.00829" lon="6.67062">
        <ele>587</ele>
        <time>2011-06-13T07:13:36Z</time>
      </trkpt>
      <trkpt lat="48.00817" lon="6.67093">
        <ele>586</ele>
        <time>2011-06-13T07:13:46Z</time>
      </trkpt>
      <trkpt lat="48.00805" lon="6.6713">
        <ele>586</ele>
        <time>2011-06-13T07:13:56Z</time>
      </trkpt>
      <trkpt lat="48.00797" lon="6.67162">
        <ele>586</ele>
        <time>2011-06-13T07:14:06Z</time>
      </trkpt>
      <trkpt lat="48.00792" lon="6.67193">
        <ele>586</ele>
        <time>2011-06-13T07:14:16Z</time>
      </trkpt>
      <trkpt lat="48.00785" lon="6.67225">
        <ele>587</ele>
        <time>2011-06-13T07:14:26Z</time>
      </trkpt>
      <trkpt lat="48.00777" lon="6.67261">
        <ele>591</ele>
        <time>2011-06-13T07:14:36Z</time>
      </trkpt>
      <trkpt lat="48.00768" lon="6.67293">
        <ele>593</ele>
        <time>2011-06-13T07:14:46Z</time>
      </trkpt>
      <trkpt lat="48.00757" lon="6.67321">
        <ele>596</ele>
        <time>2011-06-13T07:14:56Z</time>
      </trkpt>
      <trkpt lat="48.00744" lon="6.67351">
        <ele>599</ele>
        <time>2011-06-13T07:15:06Z</time>
      </trkpt>
      <trkpt lat="48.00749" lon="6.67382">
        <ele>600</ele>
        <time>2011-06-13T07:15:16Z</time>
      </trkpt>
      <trkpt lat="48.00767" lon="6.67403">
        <ele>602</ele>
        <time>2011-06-13T07:15:26Z</time>
      </trkpt>
      <trkpt lat="48.00785" lon="6.67424">
        <ele>612</ele>
        <time>2011-06-13T07:15:36Z</time>
      </trkpt>
      <trkpt lat="48.00807" lon="6.67445">
        <ele>614</ele>
        <time>2011-06-13T07:15:46Z</time>
      </trkpt>
      <trkpt lat="48.00833" lon="6.67461">
        <ele>612</ele>
        <time>2011-06-13T07:15:56Z</time>
      </trkpt>
      <trkpt lat="48.00858" lon="6.67497">
        <ele>602</ele>
        <time>2011-06-13T07:16:07Z</time>
      </trkpt>
      <trkpt lat="48.00877" lon="6.67547">
        <ele>599</ele>
        <time>2011-06-13T07:16:17Z</time>
      </trkpt>
      <trkpt lat="48.00897" lon="6.67594">
        <ele>601</ele>
        <time>2011-06-13T07:16:27Z</time>
      </trkpt>
      <trkpt lat="48.00914" lon="6.67632">
        <ele>602</ele>
        <time>2011-06-13T07:16:37Z</time>
      </trkpt>
      <trkpt lat="48.00925" lon="6.677">
        <ele>602</ele>
        <time>2011-06-13T07:16:48Z</time>
      </trkpt>
      <trkpt lat="48.00933" lon="6.67781">
        <ele>598</ele>
        <time>2011-06-13T07:16:58Z</time>
      </trkpt>
      <trkpt lat="48.00966" lon="6.67835">
        <ele>595</ele>
        <time>2011-06-13T07:17:09Z</time>
      </trkpt>
      <trkpt lat="48.00984" lon="6.67913">
        <ele>589</ele>
        <time>2011-06-13T07:17:19Z</time>
      </trkpt>
      <trkpt lat="48.00975" lon="6.68023">
        <ele>582</ele>
        <time>2011-06-13T07:17:29Z</time>
      </trkpt>
      <trkpt lat="48.00927" lon="6.68142">
        <ele>571</ele>
        <time>2011-06-13T07:17:40Z</time>
      </trkpt>
      <trkpt lat="48.0093" lon="6.68294">
        <ele>565</ele>
        <time>2011-06-13T07:17:51Z</time>
      </trkpt>
      <trkpt lat="48.00977" lon="6.68407">
        <ele>558</ele>
        <time>2011-06-13T07:18:01Z</time>
      </trkpt>
      <trkpt lat="48.01041" lon="6.68493">
        <ele>555</ele>
        <time>2011-06-13T07:18:11Z</time>
      </trkpt>
      <trkpt lat="48.01101" lon="6.68568">
        <ele>554</ele>
        <time>2011-06-13T07:18:21Z</time>
      </trkpt>
      <trkpt lat="48.0114" lon="6.68642">
        <ele>550</ele>
        <time>2011-06-13T07:18:31Z</time>
      </trkpt>
      <trkpt lat="48.01156" lon="6.68742">
        <ele>544</ele>
        <time>2011-06-13T07:18:41Z</time>
      </trkpt>
      <trkpt lat="48.01133" lon="6.68823">
        <ele>542</ele>
        <time>2011-06-13T07:18:51Z</time>
      </trkpt>
      <trkpt lat="48.01109" lon="6.68863">
        <ele>543</ele>
        <time>2011-06-13T07:19:01Z</time>
      </trkpt>
      <trkpt lat="48.01057" lon="6.68921">
        <ele>544</ele>
        <time>2011-06-13T07:19:12Z</time>
      </trkpt>
      <trkpt lat="48.01015" lon="6.68995">
        <ele>539</ele>
        <time>2011-06-13T07:19:22Z</time>
      </trkpt>
      <trkpt lat="48.01035" lon="6.69115">
        <ele>529</ele>
        <time>2011-06-13T07:19:32Z</time>
      </trkpt>
      <trkpt lat="48.01048" lon="6.69248">
        <ele>519</ele>
        <time>2011-06-13T07:19:42Z</time>
      </trkpt>
      <trkpt lat="48.01079" lon="6.69367">
        <ele>509</ele>
        <time>2011-06-13T07:19:52Z</time>
      </trkpt>
      <trkpt lat="48.01075" lon="6.69466">
        <ele>498</ele>
        <time>2011-06-13T07:20:02Z</time>
      </trkpt>
      <trkpt lat="48.01067" lon="6.69504">
        <ele>489</ele>
        <time>2011-06-13T07:20:12Z</time>
      </trkpt>
      <trkpt lat="48.01047" lon="6.69521">
        <ele>489</ele>
        <time>2011-06-13T07:20:23Z</time>
      </trkpt>
      <trkpt lat="48.01028" lon="6.69547">
        <ele>489</ele>
        <time>2011-06-13T07:20:33Z</time>
      </trkpt>
      <trkpt lat="48.01011" lon="6.69591">
        <ele>493</ele>
        <time>2011-06-13T07:20:43Z</time>
      </trkpt>
      <trkpt lat="48.00979" lon="6.69619">
        <ele>497</ele>
        <time>2011-06-13T07:20:53Z</time>
      </trkpt>
      <trkpt lat="48.00949" lon="6.69616">
        <ele>498</ele>
        <time>2011-06-13T07:21:03Z</time>
      </trkpt>
      <trkpt lat="48.00927" lon="6.69611">
        <ele>498</ele>
        <time>2011-06-13T07:21:13Z</time>
      </trkpt>
      <trkpt lat="48.00898" lon="6.69608">
        <ele>503</ele>
        <time>2011-06-13T07:21:23Z</time>
      </trkpt>
      <trkpt lat="48.00875" lon="6.69597">
        <ele>505</ele>
        <time>2011-06-13T07:21:34Z</time>
      </trkpt>
      <trkpt lat="48.00851" lon="6.69587">
        <ele>507</ele>
        <time>2011-06-13T07:21:44Z</time>
      </trkpt>
      <trkpt lat="48.0083" lon="6.69564">
        <ele>507</ele>
        <time>2011-06-13T07:21:54Z</time>
      </trkpt>
      <trkpt lat="48.0081" lon="6.69539">
        <ele>506</ele>
        <time>2011-06-13T07:22:04Z</time>
      </trkpt>
      <trkpt lat="48.00774" lon="6.6952">
        <ele>507</ele>
        <time>2011-06-13T07:22:15Z</time>
      </trkpt>
      <trkpt lat="48.00734" lon="6.69509">
        <ele>514</ele>
        <time>2011-06-13T07:22:25Z</time>
      </trkpt>
      <trkpt lat="48.00702" lon="6.69475">
        <ele>519</ele>
        <time>2011-06-13T07:22:35Z</time>
      </trkpt>
      <trkpt lat="48.00687" lon="6.69449">
        <ele>515</ele>
        <time>2011-06-13T07:22:45Z</time>
      </trkpt>
      <trkpt lat="48.00676" lon="6.69422">
        <ele>513</ele>
        <time>2011-06-13T07:22:55Z</time>
      </trkpt>
      <trkpt lat="48.00671" lon="6.69397">
        <ele>506</ele>
        <time>2011-06-13T07:23:05Z</time>
      </trkpt>
      <trkpt lat="48.00663" lon="6.69371">
        <ele>512</ele>
        <time>2011-06-13T07:23:15Z</time>
      </trkpt>
      <trkpt lat="48.00656" lon="6.69341">
        <ele>518</ele>
        <time>2011-06-13T07:23:26Z</time>
      </trkpt>
      <trkpt lat="48.00648" lon="6.69319">
        <ele>523</ele>
        <time>2011-06-13T07:23:36Z</time>
      </trkpt>
      <trkpt lat="48.00646" lon="6.69298">
        <ele>526</ele>
        <time>2011-06-13T07:23:46Z</time>
      </trkpt>
      <trkpt lat="48.00641" lon="6.69276">
        <ele>528</ele>
        <time>2011-06-13T07:23:56Z</time>
      </trkpt>
      <trkpt lat="48.00636" lon="6.6926">
        <ele>528</ele>
        <time>2011-06-13T07:24:06Z</time>
      </trkpt>
      <trkpt lat="48.00634" lon="6.6923">
        <ele>528</ele>
        <time>2011-06-13T07:24:17Z</time>
      </trkpt>
      <trkpt lat="48.0063" lon="6.69203">
        <ele>528</ele>
        <time>2011-06-13T07:24:28Z</time>
      </trkpt>
      <trkpt lat="48.00623" lon="6.69182">
        <ele>528</ele>
        <time>2011-06-13T07:24:38Z</time>
      </trkpt>
      <trkpt lat="48.00618" lon="6.6916">
        <ele>530</ele>
        <time>2011-06-13T07:24:48Z</time>
      </trkpt>
      <trkpt lat="48.00616" lon="6.69136">
        <ele>532</ele>
        <time>2011-06-13T07:24:58Z</time>
      </trkpt>
      <trkpt lat="48.00613" lon="6.6911">
        <ele>534</ele>
        <time>2011-06-13T07:25:08Z</time>
      </trkpt>
      <trkpt lat="48.00606" lon="6.69087">
        <ele>534</ele>
        <time>2011-06-13T07:25:18Z</time>
      </trkpt>
      <trkpt lat="48.00595" lon="6.69062">
        <ele>535</ele>
        <time>2011-06-13T07:25:28Z</time>
      </trkpt>
      <trkpt lat="48.0059" lon="6.69027">
        <ele>537</ele>
        <time>2011-06-13T07:25:39Z</time>
      </trkpt>
      <trkpt lat="48.00579" lon="6.68996">
        <ele>537</ele>
        <time>2011-06-13T07:25:49Z</time>
      </trkpt>
      <trkpt lat="48.00563" lon="6.68972">
        <ele>537</ele>
        <time>2011-06-13T07:25:59Z</time>
      </trkpt>
      <trkpt lat="48.00547" lon="6.68945">
        <ele>537</ele>
        <time>2011-06-13T07:26:09Z</time>
      </trkpt>
      <trkpt lat="48.00525" lon="6.68911">
        <ele>539</ele>
        <time>2011-06-13T07:26:19Z</time>
      </trkpt>
      <trkpt lat="48.00502" lon="6.68876">
        <ele>540</ele>
        <time>2011-06-13T07:26:29Z</time>
      </trkpt>
      <trkpt lat="48.00488" lon="6.68826">
        <ele>540</ele>
        <time>2011-06-13T07:26:39Z</time>
      </trkpt>
      <trkpt lat="48.0048" lon="6.68763">
        <ele>547</ele>
        <time>2011-06-13T07:26:49Z</time>
      </trkpt>
      <trkpt lat="48.00463" lon="6.68706">
        <ele>547</ele>
        <time>2011-06-13T07:26:59Z</time>
      </trkpt>
      <trkpt lat="48.00439" lon="6.68642">
        <ele>543</ele>
        <time>2011-06-13T07:27:09Z</time>
      </trkpt>
      <trkpt lat="48.00435" lon="6.6861">
        <ele>539</ele>
        <time>2011-06-13T07:27:19Z</time>
      </trkpt>
      <trkpt lat="48.0045" lon="6.68613">
        <ele>538</ele>
        <time>2011-06-13T07:27:29Z</time>
      </trkpt>
      <trkpt lat="48.00467" lon="6.68635">
        <ele>539</ele>
        <time>2011-06-13T07:27:39Z</time>
      </trkpt>
      <trkpt lat="48.00478" lon="6.68666">
        <ele>540</ele>
        <time>2011-06-13T07:27:49Z</time>
      </trkpt>
      <trkpt lat="48.00488" lon="6.68689">
        <ele>544</ele>
        <time>2011-06-13T07:27:59Z</time>
      </trkpt>
      <trkpt lat="48.00498" lon="6.68719">
        <ele>555</ele>
        <time>2011-06-13T07:28:10Z</time>
      </trkpt>
      <trkpt lat="48.00505" lon="6.68753">
        <ele>564</ele>
        <time>2011-06-13T07:28:20Z</time>
      </trkpt>
      <trkpt lat="48.00517" lon="6.6877">
        <ele>565</ele>
        <time>2011-06-13T07:28:30Z</time>
      </trkpt>
      <trkpt lat="48.00528" lon="6.68795">
        <ele>565</ele>
        <time>2011-06-13T07:28:40Z</time>
      </trkpt>
      <trkpt lat="48.00531" lon="6.68771">
        <ele>563</ele>
        <time>2011-06-13T07:28:50Z</time>
      </trkpt>
      <trkpt lat="48.00537" lon="6.68769">
        <ele>557</ele>
        <time>2011-06-13T07:29:02Z</time>
      </trkpt>
      <trkpt lat="48.00548" lon="6.68776">
        <ele>557</ele>
        <time>2011-06-13T07:29:12Z</time>
      </trkpt>
      <trkpt lat="48.0055" lon="6.68773">
        <ele>561</ele>
        <time>2011-06-13T07:29:25Z</time>
      </trkpt>
      <trkpt lat="48.00544" lon="6.68763">
        <ele>570</ele>
        <time>2011-06-13T07:29:38Z</time>
      </trkpt>
      <trkpt lat="48.00544" lon="6.6875">
        <ele>571</ele>
        <time>2011-06-13T07:29:48Z</time>
      </trkpt>
      <trkpt lat="48.00544" lon="6.68725">
        <ele>569</ele>
        <time>2011-06-13T07:29:58Z</time>
      </trkpt>
      <trkpt lat="48.00547" lon="6.68696">
        <ele>562</ele>
        <time>2011-06-13T07:30:08Z</time>
      </trkpt>
      <trkpt lat="48.00547" lon="6.68671">
        <ele>558</ele>
        <time>2011-06-13T07:30:18Z</time>
      </trkpt>
      <trkpt lat="48.00549" lon="6.68645">
        <ele>558</ele>
        <time>2011-06-13T07:30:28Z</time>
      </trkpt>
      <trkpt lat="48.00552" lon="6.68617">
        <ele>558</ele>
        <time>2011-06-13T07:30:39Z</time>
      </trkpt>
      <trkpt lat="48.00557" lon="6.68589">
        <ele>558</ele>
        <time>2011-06-13T07:30:49Z</time>
      </trkpt>
      <trkpt lat="48.00555" lon="6.68559">
        <ele>558</ele>
        <time>2011-06-13T07:30:59Z</time>
      </trkpt>
      <trkpt lat="48.00555" lon="6.68532">
        <ele>558</ele>
        <time>2011-06-13T07:31:09Z</time>
      </trkpt>
      <trkpt lat="48.0056" lon="6.68513">
        <ele>560</ele>
        <time>2011-06-13T07:31:19Z</time>
      </trkpt>
      <trkpt lat="48.00562" lon="6.6849">
        <ele>565</ele>
        <time>2011-06-13T07:31:29Z</time>
      </trkpt>
      <trkpt lat="48.00557" lon="6.68462">
        <ele>572</ele>
        <time>2011-06-13T07:31:39Z</time>
      </trkpt>
      <trkpt lat="48.00559" lon="6.68431">
        <ele>579</ele>
        <time>2011-06-13T07:31:49Z</time>
      </trkpt>
      <trkpt lat="48.0056" lon="6.68404">
        <ele>586</ele>
        <time>2011-06-13T07:31:59Z</time>
      </trkpt>
      <trkpt lat="48.00561" lon="6.68381">
        <ele>588</ele>
        <time>2011-06-13T07:32:10Z</time>
      </trkpt>
      <trkpt lat="48.00557" lon="6.68358">
        <ele>588</ele>
        <time>2011-06-13T07:32:20Z</time>
      </trkpt>
      <trkpt lat="48.00552" lon="6.6833">
        <ele>581</ele>
        <time>2011-06-13T07:32:30Z</time>
      </trkpt>
      <trkpt lat="48.00548" lon="6.68305">
        <ele>576</ele>
        <time>2011-06-13T07:32:40Z</time>
      </trkpt>
      <trkpt lat="48.00547" lon="6.68286">
        <ele>576</ele>
        <time>2011-06-13T07:32:50Z</time>
      </trkpt>
      <trkpt lat="48.00549" lon="6.6826">
        <ele>583</ele>
        <time>2011-06-13T07:33:00Z</time>
      </trkpt>
      <trkpt lat="48.00539" lon="6.68238">
        <ele>589</ele>
        <time>2011-06-13T07:33:10Z</time>
      </trkpt>
      <trkpt lat="48.00503" lon="6.68178">
        <ele>594</ele>
        <time>2011-06-13T07:33:20Z</time>
      </trkpt>
      <trkpt lat="48.00486" lon="6.68091">
        <ele>590</ele>
        <time>2011-06-13T07:33:30Z</time>
      </trkpt>
      <trkpt lat="48.00473" lon="6.6804">
        <ele>583</ele>
        <time>2011-06-13T07:33:40Z</time>
      </trkpt>
      <trkpt lat="48.00471" lon="6.68032">
        <ele>579</ele>
        <time>2011-06-13T07:33:50Z</time>
      </trkpt>
      <trkpt lat="48.00468" lon="6.68024">
        <ele>579</ele>
        <time>2011-06-13T07:34:02Z</time>
      </trkpt>
      <trkpt lat="48.00467" lon="6.67976">
        <ele>572</ele>
        <time>2011-06-13T07:34:12Z</time>
      </trkpt>
      <trkpt lat="48.00468" lon="6.67939">
        <ele>571</ele>
        <time>2011-06-13T07:34:22Z</time>
      </trkpt>
      <trkpt lat="48.00464" lon="6.67931">
        <ele>570</ele>
        <time>2011-06-13T07:34:33Z</time>
      </trkpt>
      <trkpt lat="48.00471" lon="6.67894">
        <ele>569</ele>
        <time>2011-06-13T07:34:43Z</time>
      </trkpt>
      <trkpt lat="48.00481" lon="6.67834">
        <ele>569</ele>
        <time>2011-06-13T07:34:53Z</time>
      </trkpt>
      <trkpt lat="48.00477" lon="6.67781">
        <ele>574</ele>
        <time>2011-06-13T07:35:03Z</time>
      </trkpt>
      <trkpt lat="48.0048" lon="6.67782">
        <ele>561</ele>
        <time>2011-06-13T07:35:15Z</time>
      </trkpt>
      <trkpt lat="48.00478" lon="6.67779">
        <ele>562</ele>
        <time>2011-06-13T07:35:29Z</time>
      </trkpt>
      <trkpt lat="48.00485" lon="6.67771">
        <ele>556</ele>
        <time>2011-06-13T07:35:40Z</time>
      </trkpt>
      <trkpt lat="48.00504" lon="6.67709">
        <ele>559</ele>
        <time>2011-06-13T07:35:50Z</time>
      </trkpt>
      <trkpt lat="48.00476" lon="6.67573">
        <ele>565</ele>
        <time>2011-06-13T07:36:00Z</time>
      </trkpt>
      <trkpt lat="48.0046" lon="6.67431">
        <ele>564</ele>
        <time>2011-06-13T07:36:10Z</time>
      </trkpt>
      <trkpt lat="48.00455" lon="6.67298">
        <ele>548</ele>
        <time>2011-06-13T07:36:20Z</time>
      </trkpt>
      <trkpt lat="48.00435" lon="6.67155">
        <ele>532</ele>
        <time>2011-06-13T07:36:30Z</time>
      </trkpt>
      <trkpt lat="48.00425" lon="6.67113">
        <ele>525</ele>
        <time>2011-06-13T07:36:40Z</time>
      </trkpt>
      <trkpt lat="48.00424" lon="6.67173">
        <ele>516</ele>
        <time>2011-06-13T07:36:50Z</time>
      </trkpt>
      <trkpt lat="48.00429" lon="6.67236">
        <ele>514</ele>
        <time>2011-06-13T07:37:00Z</time>
      </trkpt>
      <trkpt lat="48.0042" lon="6.67359">
        <ele>509</ele>
        <time>2011-06-13T07:37:10Z</time>
      </trkpt>
      <trkpt lat="48.00416" lon="6.67412">
        <ele>509</ele>
        <time>2011-06-13T07:37:20Z</time>
      </trkpt>
      <trkpt lat="48.00406" lon="6.67452">
        <ele>505</ele>
        <time>2011-06-13T07:37:33Z</time>
      </trkpt>
      <trkpt lat="48.00395" lon="6.6747">
        <ele>507</ele>
        <time>2011-06-13T07:37:43Z</time>
      </trkpt>
      <trkpt lat="48.00408" lon="6.67413">
        <ele>497</ele>
        <time>2011-06-13T07:37:53Z</time>
      </trkpt>
      <trkpt lat="48.00405" lon="6.67355">
        <ele>479</ele>
        <time>2011-06-13T07:38:03Z</time>
      </trkpt>
      <trkpt lat="48.00392" lon="6.67287">
        <ele>469</ele>
        <time>2011-06-13T07:38:13Z</time>
      </trkpt>
      <trkpt lat="48.00374" lon="6.67195">
        <ele>478</ele>
        <time>2011-06-13T07:38:23Z</time>
      </trkpt>
      <trkpt lat="48.00348" lon="6.67083">
        <ele>482</ele>
        <time>2011-06-13T07:38:33Z</time>
      </trkpt>
      <trkpt lat="48.00354" lon="6.66979">
        <ele>482</ele>
        <time>2011-06-13T07:38:43Z</time>
      </trkpt>
      <trkpt lat="48.00344" lon="6.66853">
        <ele>482</ele>
        <time>2011-06-13T07:38:53Z</time>
      </trkpt>
      <trkpt lat="48.00323" lon="6.66761">
        <ele>476</ele>
        <time>2011-06-13T07:39:03Z</time>
      </trkpt>
      <trkpt lat="48.00295" lon="6.66691">
        <ele>467</ele>
        <time>2011-06-13T07:39:13Z</time>
      </trkpt>
      <trkpt lat="48.00285" lon="6.66629">
        <ele>466</ele>
        <time>2011-06-13T07:39:23Z</time>
      </trkpt>
      <trkpt lat="48.00262" lon="6.66538">
        <ele>456</ele>
        <time>2011-06-13T07:39:33Z</time>
      </trkpt>
      <trkpt lat="48.00237" lon="6.66412">
        <ele>448</ele>
        <time>2011-06-13T07:39:43Z</time>
      </trkpt>
      <trkpt lat="48.00213" lon="6.66307">
        <ele>444</ele>
        <time>2011-06-13T07:39:53Z</time>
      </trkpt>
      <trkpt lat="48.00208" lon="6.66303">
        <ele>434</ele>
        <time>2011-06-13T07:40:03Z</time>
      </trkpt>
      <trkpt lat="48.00215" lon="6.66334">
        <ele>429</ele>
        <time>2011-06-13T07:40:13Z</time>
      </trkpt>
      <trkpt lat="48.0022" lon="6.66384">
        <ele>429</ele>
        <time>2011-06-13T07:40:23Z</time>
      </trkpt>
      <trkpt lat="48.00204" lon="6.66417">
        <ele>429</ele>
        <time>2011-06-13T07:40:33Z</time>
      </trkpt>
      <trkpt lat="48.00177" lon="6.66424">
        <ele>429</ele>
        <time>2011-06-13T07:40:43Z</time>
      </trkpt>
      <trkpt lat="48.00155" lon="6.66441">
        <ele>429</ele>
        <time>2011-06-13T07:40:54Z</time>
      </trkpt>
      <trkpt lat="48.0014" lon="6.66466">
        <ele>429</ele>
        <time>2011-06-13T07:41:04Z</time>
      </trkpt>
      <trkpt lat="48.00124" lon="6.66484">
        <ele>430</ele>
        <time>2011-06-13T07:41:14Z</time>
      </trkpt>
      <trkpt lat="48.00105" lon="6.66474">
        <ele>431</ele>
        <time>2011-06-13T07:41:24Z</time>
      </trkpt>
      <trkpt lat="48.00087" lon="6.66454">
        <ele>433</ele>
        <time>2011-06-13T07:41:34Z</time>
      </trkpt>
      <trkpt lat="48.0007" lon="6.66433">
        <ele>435</ele>
        <time>2011-06-13T07:41:44Z</time>
      </trkpt>
      <trkpt lat="48.00053" lon="6.66407">
        <ele>436</ele>
        <time>2011-06-13T07:41:54Z</time>
      </trkpt>
      <trkpt lat="48.00042" lon="6.66374">
        <ele>437</ele>
        <time>2011-06-13T07:42:04Z</time>
      </trkpt>
      <trkpt lat="48.00032" lon="6.66341">
        <ele>438</ele>
        <time>2011-06-13T07:42:14Z</time>
      </trkpt>
      <trkpt lat="48.00016" lon="6.66314">
        <ele>440</ele>
        <time>2011-06-13T07:42:24Z</time>
      </trkpt>
      <trkpt lat="47.99995" lon="6.66291">
        <ele>440</ele>
        <time>2011-06-13T07:42:34Z</time>
      </trkpt>
      <trkpt lat="47.9997" lon="6.66294">
        <ele>440</ele>
        <time>2011-06-13T07:42:44Z</time>
      </trkpt>
      <trkpt lat="47.99949" lon="6.66305">
        <ele>440</ele>
        <time>2011-06-13T07:42:54Z</time>
      </trkpt>
      <trkpt lat="47.99926" lon="6.66317">
        <ele>445</ele>
        <time>2011-06-13T07:43:04Z</time>
      </trkpt>
      <trkpt lat="47.99908" lon="6.66326">
        <ele>452</ele>
        <time>2011-06-13T07:43:14Z</time>
      </trkpt>
      <trkpt lat="47.9989" lon="6.66329">
        <ele>460</ele>
        <time>2011-06-13T07:43:24Z</time>
      </trkpt>
      <trkpt lat="47.99866" lon="6.66336">
        <ele>468</ele>
        <time>2011-06-13T07:43:34Z</time>
      </trkpt>
      <trkpt lat="47.99853" lon="6.66344">
        <ele>469</ele>
        <time>2011-06-13T07:43:44Z</time>
      </trkpt>
      <trkpt lat="47.99846" lon="6.66342">
        <ele>476</ele>
        <time>2011-06-13T07:44:02Z</time>
      </trkpt>
      <trkpt lat="47.99851" lon="6.6635">
        <ele>469</ele>
        <time>2011-06-13T07:44:12Z</time>
      </trkpt>
      <trkpt lat="47.99839" lon="6.66341">
        <ele>467</ele>
        <time>2011-06-13T07:44:22Z</time>
      </trkpt>
      <trkpt lat="47.99844" lon="6.66344">
        <ele>473</ele>
        <time>2011-06-13T07:44:34Z</time>
      </trkpt>
      <trkpt lat="47.99846" lon="6.66352">
        <ele>469</ele>
        <time>2011-06-13T07:44:45Z</time>
      </trkpt>
      <trkpt lat="47.99844" lon="6.66351">
        <ele>469</ele>
        <time>2011-06-13T07:44:55Z</time>
      </trkpt>
      <trkpt lat="47.99846" lon="6.66352">
        <ele>477</ele>
        <time>2011-06-13T07:45:05Z</time>
      </trkpt>
      <trkpt lat="47.99839" lon="6.66337">
        <ele>477</ele>
        <time>2011-06-13T07:45:18Z</time>
      </trkpt>
      <trkpt lat="47.99839" lon="6.66333">
        <ele>479</ele>
        <time>2011-06-13T07:45:29Z</time>
      </trkpt>
      <trkpt lat="47.99843" lon="6.66346">
        <ele>479</ele>
        <time>2011-06-13T07:45:40Z</time>
      </trkpt>
      <trkpt lat="47.9984" lon="6.66358">
        <ele>473</ele>
        <time>2011-06-13T07:45:55Z</time>
      </trkpt>
      <trkpt lat="47.9984" lon="6.66358">
        <ele>468</ele>
        <time>2011-06-13T07:46:06Z</time>
      </trkpt>
      <trkpt lat="47.99842" lon="6.66359">
        <ele>469</ele>
        <time>2011-06-13T07:46:18Z</time>
      </trkpt>
      <trkpt lat="47.9984" lon="6.66351">
        <ele>467</ele>
        <time>2011-06-13T07:46:34Z</time>
      </trkpt>
      <trkpt lat="47.99835" lon="6.66344">
        <ele>467</ele>
        <time>2011-06-13T07:46:45Z</time>
      </trkpt>
      <trkpt lat="47.99836" lon="6.66337">
        <ele>492</ele>
        <time>2011-06-13T07:46:58Z</time>
      </trkpt>
      <trkpt lat="47.99844" lon="6.66348">
        <ele>479</ele>
        <time>2011-06-13T07:47:09Z</time>
      </trkpt>
      <trkpt lat="47.99833" lon="6.6636">
        <ele>474</ele>
        <time>2011-06-13T07:47:19Z</time>
      </trkpt>
      <trkpt lat="47.99819" lon="6.66387">
        <ele>472</ele>
        <time>2011-06-13T07:47:30Z</time>
      </trkpt>
      <trkpt lat="47.99806" lon="6.66407">
        <ele>474</ele>
        <time>2011-06-13T07:47:40Z</time>
      </trkpt>
      <trkpt lat="47.99794" lon="6.66425">
        <ele>483</ele>
        <time>2011-06-13T07:47:51Z</time>
      </trkpt>
      <trkpt lat="47.99783" lon="6.66443">
        <ele>493</ele>
        <time>2011-06-13T07:48:01Z</time>
      </trkpt>
      <trkpt lat="47.99769" lon="6.66467">
        <ele>496</ele>
        <time>2011-06-13T07:48:11Z</time>
      </trkpt>
      <trkpt lat="47.99754" lon="6.66482">
        <ele>496</ele>
        <time>2011-06-13T07:48:21Z</time>
      </trkpt>
      <trkpt lat="47.99737" lon="6.66499">
        <ele>496</ele>
        <time>2011-06-13T07:48:31Z</time>
      </trkpt>
      <trkpt lat="47.99729" lon="6.66523">
        <ele>498</ele>
        <time>2011-06-13T07:48:41Z</time>
      </trkpt>
      <trkpt lat="47.99719" lon="6.66552">
        <ele>498</ele>
        <time>2011-06-13T07:48:52Z</time>
      </trkpt>
      <trkpt lat="47.99708" lon="6.66583">
        <ele>493</ele>
        <time>2011-06-13T07:49:03Z</time>
      </trkpt>
      <trkpt lat="47.99693" lon="6.66607">
        <ele>493</ele>
        <time>2011-06-13T07:49:13Z</time>
      </trkpt>
      <trkpt lat="47.99678" lon="6.6664">
        <ele>492</ele>
        <time>2011-06-13T07:49:23Z</time>
      </trkpt>
      <trkpt lat="47.99665" lon="6.66674">
        <ele>492</ele>
        <time>2011-06-13T07:49:33Z</time>
      </trkpt>
      <trkpt lat="47.99651" lon="6.66707">
        <ele>491</ele>
        <time>2011-06-13T07:49:43Z</time>
      </trkpt>
      <trkpt lat="47.9963" lon="6.66723">
        <ele>491</ele>
        <time>2011-06-13T07:49:53Z</time>
      </trkpt>
      <trkpt lat="47.9961" lon="6.66738">
        <ele>492</ele>
        <time>2011-06-13T07:50:03Z</time>
      </trkpt>
      <trkpt lat="47.99586" lon="6.66755">
        <ele>496</ele>
        <time>2011-06-13T07:50:14Z</time>
      </trkpt>
      <trkpt lat="47.99565" lon="6.66775">
        <ele>499</ele>
        <time>2011-06-13T07:50:24Z</time>
      </trkpt>
      <trkpt lat="47.99542" lon="6.66793">
        <ele>505</ele>
        <time>2011-06-13T07:50:35Z</time>
      </trkpt>
      <trkpt lat="47.99523" lon="6.66812">
        <ele>506</ele>
        <time>2011-06-13T07:50:45Z</time>
      </trkpt>
      <trkpt lat="47.99503" lon="6.66831">
        <ele>510</ele>
        <time>2011-06-13T07:50:55Z</time>
      </trkpt>
      <trkpt lat="47.99482" lon="6.6685">
        <ele>516</ele>
        <time>2011-06-13T07:51:05Z</time>
      </trkpt>
      <trkpt lat="47.99463" lon="6.66872">
        <ele>516</ele>
        <time>2011-06-13T07:51:15Z</time>
      </trkpt>
      <trkpt lat="47.99448" lon="6.66898">
        <ele>517</ele>
        <time>2011-06-13T07:51:25Z</time>
      </trkpt>
      <trkpt lat="47.99427" lon="6.66931">
        <ele>518</ele>
        <time>2011-06-13T07:51:36Z</time>
      </trkpt>
      <trkpt lat="47.99401" lon="6.66954">
        <ele>526</ele>
        <time>2011-06-13T07:51:46Z</time>
      </trkpt>
      <trkpt lat="47.99372" lon="6.66975">
        <ele>536</ele>
        <time>2011-06-13T07:51:56Z</time>
      </trkpt>
      <trkpt lat="47.99346" lon="6.67023">
        <ele>542</ele>
        <time>2011-06-13T07:52:06Z</time>
      </trkpt>
      <trkpt lat="47.99309" lon="6.67061">
        <ele>542</ele>
        <time>2011-06-13T07:52:16Z</time>
      </trkpt>
      <trkpt lat="47.99281" lon="6.67087">
        <ele>542</ele>
        <time>2011-06-13T07:52:26Z</time>
      </trkpt>
      <trkpt lat="47.99256" lon="6.67112">
        <ele>542</ele>
        <time>2011-06-13T07:52:36Z</time>
      </trkpt>
      <trkpt lat="47.99238" lon="6.6712">
        <ele>542</ele>
        <time>2011-06-13T07:52:46Z</time>
      </trkpt>
      <trkpt lat="47.99192" lon="6.67149">
        <ele>540</ele>
        <time>2011-06-13T07:52:57Z</time>
      </trkpt>
      <trkpt lat="47.99163" lon="6.67214">
        <ele>540</ele>
        <time>2011-06-13T07:53:07Z</time>
      </trkpt>
      <trkpt lat="47.99153" lon="6.67252">
        <ele>540</ele>
        <time>2011-06-13T07:53:17Z</time>
      </trkpt>
      <trkpt lat="47.99136" lon="6.67275">
        <ele>540</ele>
        <time>2011-06-13T07:53:27Z</time>
      </trkpt>
      <trkpt lat="47.99121" lon="6.67304">
        <ele>549</ele>
        <time>2011-06-13T07:53:37Z</time>
      </trkpt>
      <trkpt lat="47.99105" lon="6.67341">
        <ele>553</ele>
        <time>2011-06-13T07:53:47Z</time>
      </trkpt>
      <trkpt lat="47.99089" lon="6.67371">
        <ele>554</ele>
        <time>2011-06-13T07:53:57Z</time>
      </trkpt>
      <trkpt lat="47.99073" lon="6.6737">
        <ele>548</ele>
        <time>2011-06-13T07:54:08Z</time>
      </trkpt>
      <trkpt lat="47.99063" lon="6.67339">
        <ele>546</ele>
        <time>2011-06-13T07:54:18Z</time>
      </trkpt>
      <trkpt lat="47.99051" lon="6.67302">
        <ele>540</ele>
        <time>2011-06-13T07:54:28Z</time>
      </trkpt>
      <trkpt lat="47.99056" lon="6.67271">
        <ele>539</ele>
        <time>2011-06-13T07:54:38Z</time>
      </trkpt>
      <trkpt lat="47.99039" lon="6.67254">
        <ele>539</ele>
        <time>2011-06-13T07:54:48Z</time>
      </trkpt>
      <trkpt lat="47.99008" lon="6.67256">
        <ele>544</ele>
        <time>2011-06-13T07:54:58Z</time>
      </trkpt>
      <trkpt lat="47.98988" lon="6.67256">
        <ele>544</ele>
        <time>2011-06-13T07:55:08Z</time>
      </trkpt>
      <trkpt lat="47.98975" lon="6.67254">
        <ele>544</ele>
        <time>2011-06-13T07:55:19Z</time>
      </trkpt>
      <trkpt lat="47.98967" lon="6.67251">
        <ele>548</ele>
        <time>2011-06-13T07:55:33Z</time>
      </trkpt>
      <trkpt lat="47.98961" lon="6.67251">
        <ele>548</ele>
        <time>2011-06-13T07:55:44Z</time>
      </trkpt>
      <trkpt lat="47.98956" lon="6.67247">
        <ele>548</ele>
        <time>2011-06-13T07:55:55Z</time>
      </trkpt>
      <trkpt lat="47.9895" lon="6.67243">
        <ele>542</ele>
        <time>2011-06-13T07:56:05Z</time>
      </trkpt>
      <trkpt lat="47.98946" lon="6.67242">
        <ele>540</ele>
        <time>2011-06-13T07:56:21Z</time>
      </trkpt>
      <trkpt lat="47.98938" lon="6.67248">
        <ele>540</ele>
        <time>2011-06-13T07:56:32Z</time>
      </trkpt>
      <trkpt lat="47.98941" lon="6.67247">
        <ele>540</ele>
        <time>2011-06-13T07:56:42Z</time>
      </trkpt>
      <trkpt lat="47.98941" lon="6.67241">
        <ele>546</ele>
        <time>2011-06-13T07:56:52Z</time>
      </trkpt>
      <trkpt lat="47.9893" lon="6.6724">
        <ele>552</ele>
        <time>2011-06-13T07:57:02Z</time>
      </trkpt>
      <trkpt lat="47.98917" lon="6.67235">
        <ele>559</ele>
        <time>2011-06-13T07:57:12Z</time>
      </trkpt>
      <trkpt lat="47.98901" lon="6.67233">
        <ele>566</ele>
        <time>2011-06-13T07:57:22Z</time>
      </trkpt>
      <trkpt lat="47.98886" lon="6.67234">
        <ele>567</ele>
        <time>2011-06-13T07:57:32Z</time>
      </trkpt>
      <trkpt lat="47.98877" lon="6.6722">
        <ele>567</ele>
        <time>2011-06-13T07:57:42Z</time>
      </trkpt>
      <trkpt lat="47.98878" lon="6.67198">
        <ele>571</ele>
        <time>2011-06-13T07:57:52Z</time>
      </trkpt>
      <trkpt lat="47.98878" lon="6.67186">
        <ele>573</ele>
        <time>2011-06-13T07:58:02Z</time>
      </trkpt>
      <trkpt lat="47.98875" lon="6.67173">
        <ele>573</ele>
        <time>2011-06-13T07:58:14Z</time>
      </trkpt>
      <trkpt lat="47.98867" lon="6.67158">
        <ele>567</ele>
        <time>2011-06-13T07:58:24Z</time>
      </trkpt>
      <trkpt lat="47.98872" lon="6.67115">
        <ele>567</ele>
        <time>2011-06-13T07:58:34Z</time>
      </trkpt>
      <trkpt lat="47.98874" lon="6.67073">
        <ele>567</ele>
        <time>2011-06-13T07:58:44Z</time>
      </trkpt>
      <trkpt lat="47.98865" lon="6.67027">
        <ele>567</ele>
        <time>2011-06-13T07:58:54Z</time>
      </trkpt>
      <trkpt lat="47.98849" lon="6.67059">
        <ele>567</ele>
        <time>2011-06-13T07:59:04Z</time>
      </trkpt>
      <trkpt lat="47.98838" lon="6.67098">
        <ele>567</ele>
        <time>2011-06-13T07:59:14Z</time>
      </trkpt>
      <trkpt lat="47.98828" lon="6.67127">
        <ele>568</ele>
        <time>2011-06-13T07:59:24Z</time>
      </trkpt>
      <trkpt lat="47.98817" lon="6.6715">
        <ele>572</ele>
        <time>2011-06-13T07:59:35Z</time>
      </trkpt>
      <trkpt lat="47.98806" lon="6.67172">
        <ele>575</ele>
        <time>2011-06-13T07:59:45Z</time>
      </trkpt>
      <trkpt lat="47.98795" lon="6.67192">
        <ele>577</ele>
        <time>2011-06-13T07:59:55Z</time>
      </trkpt>
      <trkpt lat="47.98787" lon="6.67212">
        <ele>578</ele>
        <time>2011-06-13T08:00:05Z</time>
      </trkpt>
      <trkpt lat="47.98779" lon="6.67235">
        <ele>580</ele>
        <time>2011-06-13T08:00:15Z</time>
      </trkpt>
      <trkpt lat="47.98769" lon="6.67259">
        <ele>583</ele>
        <time>2011-06-13T08:00:25Z</time>
      </trkpt>
      <trkpt lat="47.98761" lon="6.67282">
        <ele>585</ele>
        <time>2011-06-13T08:00:35Z</time>
      </trkpt>
      <trkpt lat="47.98753" lon="6.6731">
        <ele>587</ele>
        <time>2011-06-13T08:00:45Z</time>
      </trkpt>
      <trkpt lat="47.98767" lon="6.67334">
        <ele>589</ele>
        <time>2011-06-13T08:00:56Z</time>
      </trkpt>
      <trkpt lat="47.98782" lon="6.67352">
        <ele>590</ele>
        <time>2011-06-13T08:01:06Z</time>
      </trkpt>
      <trkpt lat="47.98771" lon="6.67349">
        <ele>593</ele>
        <time>2011-06-13T08:01:16Z</time>
      </trkpt>
      <trkpt lat="47.98752" lon="6.67337">
        <ele>594</ele>
        <time>2011-06-13T08:01:26Z</time>
      </trkpt>
      <trkpt lat="47.98733" lon="6.67332">
        <ele>596</ele>
        <time>2011-06-13T08:01:36Z</time>
      </trkpt>
      <trkpt lat="47.98718" lon="6.67331">
        <ele>599</ele>
        <time>2011-06-13T08:01:46Z</time>
      </trkpt>
      <trkpt lat="47.98705" lon="6.67323">
        <ele>602</ele>
        <time>2011-06-13T08:01:56Z</time>
      </trkpt>
      <trkpt lat="47.98695" lon="6.6731">
        <ele>604</ele>
        <time>2011-06-13T08:02:06Z</time>
      </trkpt>
      <trkpt lat="47.98686" lon="6.67294">
        <ele>607</ele>
        <time>2011-06-13T08:02:16Z</time>
      </trkpt>
      <trkpt lat="47.9868" lon="6.67275">
        <ele>609</ele>
        <time>2011-06-13T08:02:26Z</time>
      </trkpt>
      <trkpt lat="47.98674" lon="6.67278">
        <ele>611</ele>
        <time>2011-06-13T08:02:36Z</time>
      </trkpt>
      <trkpt lat="47.98674" lon="6.67302">
        <ele>611</ele>
        <time>2011-06-13T08:02:46Z</time>
      </trkpt>
      <trkpt lat="47.9867" lon="6.67327">
        <ele>611</ele>
        <time>2011-06-13T08:02:56Z</time>
      </trkpt>
      <trkpt lat="47.98669" lon="6.67352">
        <ele>611</ele>
        <time>2011-06-13T08:03:06Z</time>
      </trkpt>
      <trkpt lat="47.98672" lon="6.67378">
        <ele>611</ele>
        <time>2011-06-13T08:03:16Z</time>
      </trkpt>
      <trkpt lat="47.98683" lon="6.67395">
        <ele>617</ele>
        <time>2011-06-13T08:03:27Z</time>
      </trkpt>
      <trkpt lat="47.98697" lon="6.67411">
        <ele>621</ele>
        <time>2011-06-13T08:03:37Z</time>
      </trkpt>
      <trkpt lat="47.98709" lon="6.67434">
        <ele>621</ele>
        <time>2011-06-13T08:03:47Z</time>
      </trkpt>
      <trkpt lat="47.98726" lon="6.67457">
        <ele>621</ele>
        <time>2011-06-13T08:03:57Z</time>
      </trkpt>
      <trkpt lat="47.98742" lon="6.67488">
        <ele>621</ele>
        <time>2011-06-13T08:04:07Z</time>
      </trkpt>
      <trkpt lat="47.98757" lon="6.67513">
        <ele>621</ele>
        <time>2011-06-13T08:04:17Z</time>
      </trkpt>
      <trkpt lat="47.98768" lon="6.67539">
        <ele>621</ele>
        <time>2011-06-13T08:04:27Z</time>
      </trkpt>
      <trkpt lat="47.98777" lon="6.67569">
        <ele>621</ele>
        <time>2011-06-13T08:04:37Z</time>
      </trkpt>
      <trkpt lat="47.98785" lon="6.67604">
        <ele>623</ele>
        <time>2011-06-13T08:04:48Z</time>
      </trkpt>
      <trkpt lat="47.98793" lon="6.67635">
        <ele>625</ele>
        <time>2011-06-13T08:04:58Z</time>
      </trkpt>
      <trkpt lat="47.98803" lon="6.67666">
        <ele>625</ele>
        <time>2011-06-13T08:05:08Z</time>
      </trkpt>
      <trkpt lat="47.98809" lon="6.67702">
        <ele>626</ele>
        <time>2011-06-13T08:05:18Z</time>
      </trkpt>
      <trkpt lat="47.9882" lon="6.67735">
        <ele>629</ele>
        <time>2011-06-13T08:05:28Z</time>
      </trkpt>
      <trkpt lat="47.98829" lon="6.67767">
        <ele>632</ele>
        <time>2011-06-13T08:05:38Z</time>
      </trkpt>
      <trkpt lat="47.98837" lon="6.67797">
        <ele>638</ele>
        <time>2011-06-13T08:05:48Z</time>
      </trkpt>
      <trkpt lat="47.98839" lon="6.67831">
        <ele>647</ele>
        <time>2011-06-13T08:05:58Z</time>
      </trkpt>
      <trkpt lat="47.9884" lon="6.67875">
        <ele>648</ele>
        <time>2011-06-13T08:06:09Z</time>
      </trkpt>
      <trkpt lat="47.98854" lon="6.67902">
        <ele>648</ele>
        <time>2011-06-13T08:06:19Z</time>
      </trkpt>
      <trkpt lat="47.98871" lon="6.67924">
        <ele>651</ele>
        <time>2011-06-13T08:06:29Z</time>
      </trkpt>
      <trkpt lat="47.98889" lon="6.67948">
        <ele>659</ele>
        <time>2011-06-13T08:06:39Z</time>
      </trkpt>
      <trkpt lat="47.98904" lon="6.67977">
        <ele>662</ele>
        <time>2011-06-13T08:06:49Z</time>
      </trkpt>
      <trkpt lat="47.98912" lon="6.68002">
        <ele>660</ele>
        <time>2011-06-13T08:06:59Z</time>
      </trkpt>
      <trkpt lat="47.98928" lon="6.68033">
        <ele>656</ele>
        <time>2011-06-13T08:07:09Z</time>
      </trkpt>
      <trkpt lat="47.9894" lon="6.68066">
        <ele>655</ele>
        <time>2011-06-13T08:07:19Z</time>
      </trkpt>
      <trkpt lat="47.98952" lon="6.68098">
        <ele>655</ele>
        <time>2011-06-13T08:07:29Z</time>
      </trkpt>
      <trkpt lat="47.98963" lon="6.6813">
        <ele>655</ele>
        <time>2011-06-13T08:07:39Z</time>
      </trkpt>
      <trkpt lat="47.98971" lon="6.68165">
        <ele>655</ele>
        <time>2011-06-13T08:07:49Z</time>
      </trkpt>
      <trkpt lat="47.98971" lon="6.68199">
        <ele>662</ele>
        <time>2011-06-13T08:07:59Z</time>
      </trkpt>
      <trkpt lat="47.98974" lon="6.68235">
        <ele>665</ele>
        <time>2011-06-13T08:08:09Z</time>
      </trkpt>
      <trkpt lat="47.98973" lon="6.68268">
        <ele>666</ele>
        <time>2011-06-13T08:08:19Z</time>
      </trkpt>
      <trkpt lat="47.98975" lon="6.68302">
        <ele>670</ele>
        <time>2011-06-13T08:08:29Z</time>
      </trkpt>
      <trkpt lat="47.98966" lon="6.68335">
        <ele>669</ele>
        <time>2011-06-13T08:08:39Z</time>
      </trkpt>
      <trkpt lat="47.98957" lon="6.68368">
        <ele>664</ele>
        <time>2011-06-13T08:08:49Z</time>
      </trkpt>
      <trkpt lat="47.98953" lon="6.68405">
        <ele>663</ele>
        <time>2011-06-13T08:08:59Z</time>
      </trkpt>
      <trkpt lat="47.98959" lon="6.68453">
        <ele>663</ele>
        <time>2011-06-13T08:09:09Z</time>
      </trkpt>
      <trkpt lat="47.98969" lon="6.68515">
        <ele>666</ele>
        <time>2011-06-13T08:09:19Z</time>
      </trkpt>
      <trkpt lat="47.99023" lon="6.68532">
        <ele>672</ele>
        <time>2011-06-13T08:09:29Z</time>
      </trkpt>
      <trkpt lat="47.99066" lon="6.68539">
        <ele>676</ele>
        <time>2011-06-13T08:09:39Z</time>
      </trkpt>
      <trkpt lat="47.99107" lon="6.68564">
        <ele>672</ele>
        <time>2011-06-13T08:09:49Z</time>
      </trkpt>
      <trkpt lat="47.99164" lon="6.68558">
        <ele>660</ele>
        <time>2011-06-13T08:09:59Z</time>
      </trkpt>
      <trkpt lat="47.99208" lon="6.68591">
        <ele>651</ele>
        <time>2011-06-13T08:10:09Z</time>
      </trkpt>
      <trkpt lat="47.99237" lon="6.68626">
        <ele>651</ele>
        <time>2011-06-13T08:10:19Z</time>
      </trkpt>
      <trkpt lat="47.99278" lon="6.68653">
        <ele>655</ele>
        <time>2011-06-13T08:10:29Z</time>
      </trkpt>
      <trkpt lat="47.99322" lon="6.68688">
        <ele>655</ele>
        <time>2011-06-13T08:10:39Z</time>
      </trkpt>
      <trkpt lat="47.99338" lon="6.68641">
        <ele>653</ele>
        <time>2011-06-13T08:10:49Z</time>
      </trkpt>
      <trkpt lat="47.9934" lon="6.68662">
        <ele>652</ele>
        <time>2011-06-13T08:10:59Z</time>
      </trkpt>
      <trkpt lat="47.99346" lon="6.68681">
        <ele>652</ele>
        <time>2011-06-13T08:11:09Z</time>
      </trkpt>
      <trkpt lat="47.9935" lon="6.68702">
        <ele>652</ele>
        <time>2011-06-13T08:11:19Z</time>
      </trkpt>
      <trkpt lat="47.99353" lon="6.6872">
        <ele>652</ele>
        <time>2011-06-13T08:11:30Z</time>
      </trkpt>
      <trkpt lat="47.99354" lon="6.6872">
        <ele>656</ele>
        <time>2011-06-13T08:11:42Z</time>
      </trkpt>
      <trkpt lat="47.99356" lon="6.68723">
        <ele>658</ele>
        <time>2011-06-13T08:11:53Z</time>
      </trkpt>
      <trkpt lat="47.99361" lon="6.68737">
        <ele>654</ele>
        <time>2011-06-13T08:12:03Z</time>
      </trkpt>
      <trkpt lat="47.99364" lon="6.6876">
        <ele>656</ele>
        <time>2011-06-13T08:12:13Z</time>
      </trkpt>
      <trkpt lat="47.99371" lon="6.68775">
        <ele>661</ele>
        <time>2011-06-13T08:12:23Z</time>
      </trkpt>
      <trkpt lat="47.99375" lon="6.6879">
        <ele>668</ele>
        <time>2011-06-13T08:12:33Z</time>
      </trkpt>
      <trkpt lat="47.9938" lon="6.68808">
        <ele>669</ele>
        <time>2011-06-13T08:12:44Z</time>
      </trkpt>
      <trkpt lat="47.99387" lon="6.68829">
        <ele>669</ele>
        <time>2011-06-13T08:12:55Z</time>
      </trkpt>
      <trkpt lat="47.99393" lon="6.68847">
        <ele>669</ele>
        <time>2011-06-13T08:13:05Z</time>
      </trkpt>
      <trkpt lat="47.99396" lon="6.68865">
        <ele>669</ele>
        <time>2011-06-13T08:13:15Z</time>
      </trkpt>
      <trkpt lat="47.99401" lon="6.68883">
        <ele>669</ele>
        <time>2011-06-13T08:13:25Z</time>
      </trkpt>
      <trkpt lat="47.99404" lon="6.689">
        <ele>669</ele>
        <time>2011-06-13T08:13:35Z</time>
      </trkpt>
      <trkpt lat="47.99405" lon="6.68918">
        <ele>675</ele>
        <time>2011-06-13T08:13:45Z</time>
      </trkpt>
      <trkpt lat="47.99404" lon="6.68941">
        <ele>678</ele>
        <time>2011-06-13T08:13:55Z</time>
      </trkpt>
      <trkpt lat="47.99401" lon="6.68961">
        <ele>678</ele>
        <time>2011-06-13T08:14:06Z</time>
      </trkpt>
      <trkpt lat="47.99395" lon="6.68976">
        <ele>685</ele>
        <time>2011-06-13T08:14:16Z</time>
      </trkpt>
      <trkpt lat="47.99391" lon="6.68996">
        <ele>690</ele>
        <time>2011-06-13T08:14:26Z</time>
      </trkpt>
      <trkpt lat="47.99389" lon="6.69017">
        <ele>691</ele>
        <time>2011-06-13T08:14:36Z</time>
      </trkpt>
      <trkpt lat="47.99386" lon="6.69039">
        <ele>691</ele>
        <time>2011-06-13T08:14:46Z</time>
      </trkpt>
      <trkpt lat="47.99385" lon="6.6906">
        <ele>691</ele>
        <time>2011-06-13T08:14:56Z</time>
      </trkpt>
      <trkpt lat="47.99384" lon="6.6908">
        <ele>692</ele>
        <time>2011-06-13T08:15:06Z</time>
      </trkpt>
      <trkpt lat="47.99383" lon="6.691">
        <ele>693</ele>
        <time>2011-06-13T08:15:16Z</time>
      </trkpt>
      <trkpt lat="47.99381" lon="6.69123">
        <ele>695</ele>
        <time>2011-06-13T08:15:26Z</time>
      </trkpt>
      <trkpt lat="47.99377" lon="6.69148">
        <ele>695</ele>
        <time>2011-06-13T08:15:36Z</time>
      </trkpt>
      <trkpt lat="47.99369" lon="6.69157">
        <ele>699</ele>
        <time>2011-06-13T08:15:54Z</time>
      </trkpt>
      <trkpt lat="47.99353" lon="6.69137">
        <ele>699</ele>
        <time>2011-06-13T08:16:04Z</time>
      </trkpt>
      <trkpt lat="47.99337" lon="6.69128">
        <ele>699</ele>
        <time>2011-06-13T08:16:14Z</time>
      </trkpt>
      <trkpt lat="47.99319" lon="6.69125">
        <ele>699</ele>
        <time>2011-06-13T08:16:24Z</time>
      </trkpt>
      <trkpt lat="47.99303" lon="6.69114">
        <ele>700</ele>
        <time>2011-06-13T08:16:34Z</time>
      </trkpt>
      <trkpt lat="47.99293" lon="6.69095">
        <ele>702</ele>
        <time>2011-06-13T08:16:44Z</time>
      </trkpt>
      <trkpt lat="47.99281" lon="6.69078">
        <ele>704</ele>
        <time>2011-06-13T08:16:54Z</time>
      </trkpt>
      <trkpt lat="47.99265" lon="6.69065">
        <ele>705</ele>
        <time>2011-06-13T08:17:04Z</time>
      </trkpt>
      <trkpt lat="47.99252" lon="6.69043">
        <ele>710</ele>
        <time>2011-06-13T08:17:14Z</time>
      </trkpt>
      <trkpt lat="47.99237" lon="6.69025">
        <ele>711</ele>
        <time>2011-06-13T08:17:24Z</time>
      </trkpt>
      <trkpt lat="47.99226" lon="6.69">
        <ele>712</ele>
        <time>2011-06-13T08:17:34Z</time>
      </trkpt>
      <trkpt lat="47.9922" lon="6.68972">
        <ele>718</ele>
        <time>2011-06-13T08:17:44Z</time>
      </trkpt>
      <trkpt lat="47.9921" lon="6.68944">
        <ele>719</ele>
        <time>2011-06-13T08:17:54Z</time>
      </trkpt>
      <trkpt lat="47.99198" lon="6.68919">
        <ele>718</ele>
        <time>2011-06-13T08:18:04Z</time>
      </trkpt>
      <trkpt lat="47.99184" lon="6.68899">
        <ele>717</ele>
        <time>2011-06-13T08:18:14Z</time>
      </trkpt>
      <trkpt lat="47.99168" lon="6.68881">
        <ele>715</ele>
        <time>2011-06-13T08:18:24Z</time>
      </trkpt>
      <trkpt lat="47.9915" lon="6.68859">
        <ele>716</ele>
        <time>2011-06-13T08:18:34Z</time>
      </trkpt>
      <trkpt lat="47.99131" lon="6.68852">
        <ele>717</ele>
        <time>2011-06-13T08:18:44Z</time>
      </trkpt>
      <trkpt lat="47.99112" lon="6.6885">
        <ele>719</ele>
        <time>2011-06-13T08:18:54Z</time>
      </trkpt>
      <trkpt lat="47.99089" lon="6.68843">
        <ele>720</ele>
        <time>2011-06-13T08:19:04Z</time>
      </trkpt>
      <trkpt lat="47.99068" lon="6.68841">
        <ele>723</ele>
        <time>2011-06-13T08:19:14Z</time>
      </trkpt>
      <trkpt lat="47.99049" lon="6.6883">
        <ele>724</ele>
        <time>2011-06-13T08:19:24Z</time>
      </trkpt>
      <trkpt lat="47.9903" lon="6.68821">
        <ele>727</ele>
        <time>2011-06-13T08:19:34Z</time>
      </trkpt>
      <trkpt lat="47.9901" lon="6.68817">
        <ele>728</ele>
        <time>2011-06-13T08:19:44Z</time>
      </trkpt>
      <trkpt lat="47.9899" lon="6.68821">
        <ele>729</ele>
        <time>2011-06-13T08:19:54Z</time>
      </trkpt>
      <trkpt lat="47.98973" lon="6.68834">
        <ele>731</ele>
        <time>2011-06-13T08:20:04Z</time>
      </trkpt>
      <trkpt lat="47.98952" lon="6.68845">
        <ele>734</ele>
        <time>2011-06-13T08:20:15Z</time>
      </trkpt>
      <trkpt lat="47.98933" lon="6.6885">
        <ele>738</ele>
        <time>2011-06-13T08:20:25Z</time>
      </trkpt>
      <trkpt lat="47.98915" lon="6.68855">
        <ele>745</ele>
        <time>2011-06-13T08:20:35Z</time>
      </trkpt>
      <trkpt lat="47.98897" lon="6.68872">
        <ele>749</ele>
        <time>2011-06-13T08:20:45Z</time>
      </trkpt>
      <trkpt lat="47.98879" lon="6.6889">
        <ele>758</ele>
        <time>2011-06-13T08:20:55Z</time>
      </trkpt>
      <trkpt lat="47.98861" lon="6.68905">
        <ele>764</ele>
        <time>2011-06-13T08:21:05Z</time>
      </trkpt>
      <trkpt lat="47.98844" lon="6.6891">
        <ele>764</ele>
        <time>2011-06-13T08:21:15Z</time>
      </trkpt>
      <trkpt lat="47.98827" lon="6.68914">
        <ele>762</ele>
        <time>2011-06-13T08:21:25Z</time>
      </trkpt>
      <trkpt lat="47.98804" lon="6.68913">
        <ele>762</ele>
        <time>2011-06-13T08:21:36Z</time>
      </trkpt>
      <trkpt lat="47.98789" lon="6.68895">
        <ele>762</ele>
        <time>2011-06-13T08:21:46Z</time>
      </trkpt>
      <trkpt lat="47.98784" lon="6.68887">
        <ele>760</ele>
        <time>2011-06-13T08:21:59Z</time>
      </trkpt>
      <trkpt lat="47.98775" lon="6.68874">
        <ele>767</ele>
        <time>2011-06-13T08:22:16Z</time>
      </trkpt>
      <trkpt lat="47.98764" lon="6.68833">
        <ele>769</ele>
        <time>2011-06-13T08:22:27Z</time>
      </trkpt>
      <trkpt lat="47.98777" lon="6.68783">
        <ele>769</ele>
        <time>2011-06-13T08:22:37Z</time>
      </trkpt>
      <trkpt lat="47.9878" lon="6.68724">
        <ele>769</ele>
        <time>2011-06-13T08:22:47Z</time>
      </trkpt>
      <trkpt lat="47.98766" lon="6.68681">
        <ele>759</ele>
        <time>2011-06-13T08:22:57Z</time>
      </trkpt>
      <trkpt lat="47.9876" lon="6.68643">
        <ele>755</ele>
        <time>2011-06-13T08:23:08Z</time>
      </trkpt>
      <trkpt lat="47.98762" lon="6.68615">
        <ele>755</ele>
        <time>2011-06-13T08:23:18Z</time>
      </trkpt>
      <trkpt lat="47.98759" lon="6.68582">
        <ele>756</ele>
        <time>2011-06-13T08:23:28Z</time>
      </trkpt>
      <trkpt lat="47.98763" lon="6.68549">
        <ele>760</ele>
        <time>2011-06-13T08:23:38Z</time>
      </trkpt>
      <trkpt lat="47.9876" lon="6.68512">
        <ele>764</ele>
        <time>2011-06-13T08:23:48Z</time>
      </trkpt>
      <trkpt lat="47.98761" lon="6.68476">
        <ele>766</ele>
        <time>2011-06-13T08:23:58Z</time>
      </trkpt>
      <trkpt lat="47.98759" lon="6.68412">
        <ele>765</ele>
        <time>2011-06-13T08:24:08Z</time>
      </trkpt>
      <trkpt lat="47.98766" lon="6.68322">
        <ele>764</ele>
        <time>2011-06-13T08:24:19Z</time>
      </trkpt>
      <trkpt lat="47.9875" lon="6.6824">
        <ele>762</ele>
        <time>2011-06-13T08:24:29Z</time>
      </trkpt>
      <trkpt lat="47.98707" lon="6.68187">
        <ele>753</ele>
        <time>2011-06-13T08:24:39Z</time>
      </trkpt>
      <trkpt lat="47.98682" lon="6.68149">
        <ele>747</ele>
        <time>2011-06-13T08:24:49Z</time>
      </trkpt>
      <trkpt lat="47.98655" lon="6.68125">
        <ele>751</ele>
        <time>2011-06-13T08:24:59Z</time>
      </trkpt>
      <trkpt lat="47.9863" lon="6.68093">
        <ele>751</ele>
        <time>2011-06-13T08:25:09Z</time>
      </trkpt>
      <trkpt lat="47.98606" lon="6.6805">
        <ele>753</ele>
        <time>2011-06-13T08:25:19Z</time>
      </trkpt>
      <trkpt lat="47.9859" lon="6.68005">
        <ele>753</ele>
        <time>2011-06-13T08:25:29Z</time>
      </trkpt>
      <trkpt lat="47.98589" lon="6.67985">
        <ele>753</ele>
        <time>2011-06-13T08:25:40Z</time>
      </trkpt>
      <trkpt lat="47.98587" lon="6.67967">
        <ele>753</ele>
        <time>2011-06-13T08:25:50Z</time>
      </trkpt>
      <trkpt lat="47.98561" lon="6.67931">
        <ele>752</ele>
        <time>2011-06-13T08:26:00Z</time>
      </trkpt>
      <trkpt lat="47.98496" lon="6.67906">
        <ele>745</ele>
        <time>2011-06-13T08:26:10Z</time>
      </trkpt>
      <trkpt lat="47.98452" lon="6.67927">
        <ele>739</ele>
        <time>2011-06-13T08:26:20Z</time>
      </trkpt>
      <trkpt lat="47.98436" lon="6.67955">
        <ele>737</ele>
        <time>2011-06-13T08:26:30Z</time>
      </trkpt>
      <trkpt lat="47.98416" lon="6.67988">
        <ele>741</ele>
        <time>2011-06-13T08:26:40Z</time>
      </trkpt>
      <trkpt lat="47.98401" lon="6.68028">
        <ele>748</ele>
        <time>2011-06-13T08:26:50Z</time>
      </trkpt>
      <trkpt lat="47.98399" lon="6.68078">
        <ele>749</ele>
        <time>2011-06-13T08:27:01Z</time>
      </trkpt>
      <trkpt lat="47.98399" lon="6.68122">
        <ele>749</ele>
        <time>2011-06-13T08:27:11Z</time>
      </trkpt>
      <trkpt lat="47.98402" lon="6.68166">
        <ele>749</ele>
        <time>2011-06-13T08:27:21Z</time>
      </trkpt>
      <trkpt lat="47.98405" lon="6.68208">
        <ele>750</ele>
        <time>2011-06-13T08:27:31Z</time>
      </trkpt>
      <trkpt lat="47.98405" lon="6.6825">
        <ele>752</ele>
        <time>2011-06-13T08:27:41Z</time>
      </trkpt>
      <trkpt lat="47.98404" lon="6.6829">
        <ele>754</ele>
        <time>2011-06-13T08:27:51Z</time>
      </trkpt>
      <trkpt lat="47.98403" lon="6.68325">
        <ele>759</ele>
        <time>2011-06-13T08:28:01Z</time>
      </trkpt>
      <trkpt lat="47.98402" lon="6.68362">
        <ele>762</ele>
        <time>2011-06-13T08:28:11Z</time>
      </trkpt>
      <trkpt lat="47.98397" lon="6.68403">
        <ele>768</ele>
        <time>2011-06-13T08:28:22Z</time>
      </trkpt>
      <trkpt lat="47.98387" lon="6.6843">
        <ele>775</ele>
        <time>2011-06-13T08:28:32Z</time>
      </trkpt>
      <trkpt lat="47.98383" lon="6.68442">
        <ele>776</ele>
        <time>2011-06-13T08:28:43Z</time>
      </trkpt>
      <trkpt lat="47.9837" lon="6.68456">
        <ele>782</ele>
        <time>2011-06-13T08:28:53Z</time>
      </trkpt>
      <trkpt lat="47.98338" lon="6.68497">
        <ele>773</ele>
        <time>2011-06-13T08:29:03Z</time>
      </trkpt>
      <trkpt lat="47.98302" lon="6.68553">
        <ele>765</ele>
        <time>2011-06-13T08:29:13Z</time>
      </trkpt>
      <trkpt lat="47.98268" lon="6.68642">
        <ele>765</ele>
        <time>2011-06-13T08:29:23Z</time>
      </trkpt>
      <trkpt lat="47.98237" lon="6.6874">
        <ele>759</ele>
        <time>2011-06-13T08:29:33Z</time>
      </trkpt>
      <trkpt lat="47.98214" lon="6.68817">
        <ele>761</ele>
        <time>2011-06-13T08:29:44Z</time>
      </trkpt>
      <trkpt lat="47.98201" lon="6.68841">
        <ele>766</ele>
        <time>2011-06-13T08:29:54Z</time>
      </trkpt>
      <trkpt lat="47.98179" lon="6.68854">
        <ele>770</ele>
        <time>2011-06-13T08:30:04Z</time>
      </trkpt>
      <trkpt lat="47.98148" lon="6.6887">
        <ele>771</ele>
        <time>2011-06-13T08:30:14Z</time>
      </trkpt>
      <trkpt lat="47.98105" lon="6.68894">
        <ele>772</ele>
        <time>2011-06-13T08:30:24Z</time>
      </trkpt>
      <trkpt lat="47.98069" lon="6.6893">
        <ele>766</ele>
        <time>2011-06-13T08:30:34Z</time>
      </trkpt>
      <trkpt lat="47.98046" lon="6.68956">
        <ele>760</ele>
        <time>2011-06-13T08:30:44Z</time>
      </trkpt>
      <trkpt lat="47.98028" lon="6.68977">
        <ele>759</ele>
        <time>2011-06-13T08:30:54Z</time>
      </trkpt>
      <trkpt lat="47.98006" lon="6.68967">
        <ele>759</ele>
        <time>2011-06-13T08:31:04Z</time>
      </trkpt>
      <trkpt lat="47.97976" lon="6.68965">
        <ele>760</ele>
        <time>2011-06-13T08:31:14Z</time>
      </trkpt>
      <trkpt lat="47.97943" lon="6.68991">
        <ele>764</ele>
        <time>2011-06-13T08:31:24Z</time>
      </trkpt>
      <trkpt lat="47.97923" lon="6.69017">
        <ele>765</ele>
        <time>2011-06-13T08:31:34Z</time>
      </trkpt>
      <trkpt lat="47.97924" lon="6.69053">
        <ele>765</ele>
        <time>2011-06-13T08:31:44Z</time>
      </trkpt>
      <trkpt lat="47.9792" lon="6.69092">
        <ele>770</ele>
        <time>2011-06-13T08:31:54Z</time>
      </trkpt>
      <trkpt lat="47.97918" lon="6.69136">
        <ele>776</ele>
        <time>2011-06-13T08:32:04Z</time>
      </trkpt>
      <trkpt lat="47.97918" lon="6.69183">
        <ele>779</ele>
        <time>2011-06-13T08:32:14Z</time>
      </trkpt>
      <trkpt lat="47.97918" lon="6.69225">
        <ele>772</ele>
        <time>2011-06-13T08:32:24Z</time>
      </trkpt>
      <trkpt lat="47.97924" lon="6.69269">
        <ele>765</ele>
        <time>2011-06-13T08:32:34Z</time>
      </trkpt>
      <trkpt lat="47.97925" lon="6.6932">
        <ele>764</ele>
        <time>2011-06-13T08:32:44Z</time>
      </trkpt>
      <trkpt lat="47.9792" lon="6.69373">
        <ele>770</ele>
        <time>2011-06-13T08:32:54Z</time>
      </trkpt>
      <trkpt lat="47.97914" lon="6.69425">
        <ele>773</ele>
        <time>2011-06-13T08:33:04Z</time>
      </trkpt>
      <trkpt lat="47.97897" lon="6.69466">
        <ele>773</ele>
        <time>2011-06-13T08:33:14Z</time>
      </trkpt>
      <trkpt lat="47.9787" lon="6.69493">
        <ele>773</ele>
        <time>2011-06-13T08:33:24Z</time>
      </trkpt>
      <trkpt lat="47.97842" lon="6.6952">
        <ele>778</ele>
        <time>2011-06-13T08:33:34Z</time>
      </trkpt>
      <trkpt lat="47.97818" lon="6.6954">
        <ele>784</ele>
        <time>2011-06-13T08:33:45Z</time>
      </trkpt>
      <trkpt lat="47.97807" lon="6.6955">
        <ele>787</ele>
        <time>2011-06-13T08:33:56Z</time>
      </trkpt>
      <trkpt lat="47.97803" lon="6.69551">
        <ele>804</ele>
        <time>2011-06-13T08:34:07Z</time>
      </trkpt>
      <trkpt lat="47.97811" lon="6.69559">
        <ele>787</ele>
        <time>2011-06-13T08:34:17Z</time>
      </trkpt>
      <trkpt lat="47.97811" lon="6.69568">
        <ele>767</ele>
        <time>2011-06-13T08:34:27Z</time>
      </trkpt>
      <trkpt lat="47.97807" lon="6.69564">
        <ele>770</ele>
        <time>2011-06-13T08:34:37Z</time>
      </trkpt>
      <trkpt lat="47.97784" lon="6.69573">
        <ele>780</ele>
        <time>2011-06-13T08:34:47Z</time>
      </trkpt>
      <trkpt lat="47.97735" lon="6.69575">
        <ele>781</ele>
        <time>2011-06-13T08:34:57Z</time>
      </trkpt>
      <trkpt lat="47.97723" lon="6.69499">
        <ele>785</ele>
        <time>2011-06-13T08:35:07Z</time>
      </trkpt>
      <trkpt lat="47.97673" lon="6.69477">
        <ele>786</ele>
        <time>2011-06-13T08:35:17Z</time>
      </trkpt>
      <trkpt lat="47.97634" lon="6.69457">
        <ele>790</ele>
        <time>2011-06-13T08:35:27Z</time>
      </trkpt>
      <trkpt lat="47.97599" lon="6.69441">
        <ele>790</ele>
        <time>2011-06-13T08:35:37Z</time>
      </trkpt>
      <trkpt lat="47.9759" lon="6.69397">
        <ele>792</ele>
        <time>2011-06-13T08:35:47Z</time>
      </trkpt>
      <trkpt lat="47.97569" lon="6.69362">
        <ele>798</ele>
        <time>2011-06-13T08:35:57Z</time>
      </trkpt>
      <trkpt lat="47.9754" lon="6.6937">
        <ele>799</ele>
        <time>2011-06-13T08:36:07Z</time>
      </trkpt>
      <trkpt lat="47.97518" lon="6.69401">
        <ele>799</ele>
        <time>2011-06-13T08:36:17Z</time>
      </trkpt>
      <trkpt lat="47.97497" lon="6.69436">
        <ele>799</ele>
        <time>2011-06-13T08:36:27Z</time>
      </trkpt>
      <trkpt lat="47.97475" lon="6.6947">
        <ele>799</ele>
        <time>2011-06-13T08:36:37Z</time>
      </trkpt>
      <trkpt lat="47.97449" lon="6.69466">
        <ele>799</ele>
        <time>2011-06-13T08:36:48Z</time>
      </trkpt>
      <trkpt lat="47.97451" lon="6.69471">
        <ele>800</ele>
        <time>2011-06-13T08:37:00Z</time>
      </trkpt>
      <trkpt lat="47.97451" lon="6.69457">
        <ele>808</ele>
        <time>2011-06-13T08:37:13Z</time>
      </trkpt>
      <trkpt lat="47.97449" lon="6.69439">
        <ele>812</ele>
        <time>2011-06-13T08:37:27Z</time>
      </trkpt>
      <trkpt lat="47.9745" lon="6.69383">
        <ele>811</ele>
        <time>2011-06-13T08:37:37Z</time>
      </trkpt>
      <trkpt lat="47.97451" lon="6.69317">
        <ele>806</ele>
        <time>2011-06-13T08:37:47Z</time>
      </trkpt>
      <trkpt lat="47.97451" lon="6.69244">
        <ele>800</ele>
        <time>2011-06-13T08:37:57Z</time>
      </trkpt>
      <trkpt lat="47.97455" lon="6.69188">
        <ele>799</ele>
        <time>2011-06-13T08:38:07Z</time>
      </trkpt>
      <trkpt lat="47.97461" lon="6.69122">
        <ele>800</ele>
        <time>2011-06-13T08:38:17Z</time>
      </trkpt>
      <trkpt lat="47.97467" lon="6.69052">
        <ele>802</ele>
        <time>2011-06-13T08:38:27Z</time>
      </trkpt>
      <trkpt lat="47.97466" lon="6.68997">
        <ele>803</ele>
        <time>2011-06-13T08:38:37Z</time>
      </trkpt>
      <trkpt lat="47.97472" lon="6.6895">
        <ele>805</ele>
        <time>2011-06-13T08:38:47Z</time>
      </trkpt>
      <trkpt lat="47.9747" lon="6.68911">
        <ele>813</ele>
        <time>2011-06-13T08:38:57Z</time>
      </trkpt>
      <trkpt lat="47.97455" lon="6.68882">
        <ele>813</ele>
        <time>2011-06-13T08:39:07Z</time>
      </trkpt>
      <trkpt lat="47.97439" lon="6.68855">
        <ele>813</ele>
        <time>2011-06-13T08:39:17Z</time>
      </trkpt>
      <trkpt lat="47.97421" lon="6.68824">
        <ele>813</ele>
        <time>2011-06-13T08:39:27Z</time>
      </trkpt>
      <trkpt lat="47.97401" lon="6.688">
        <ele>813</ele>
        <time>2011-06-13T08:39:37Z</time>
      </trkpt>
      <trkpt lat="47.97373" lon="6.6878">
        <ele>814</ele>
        <time>2011-06-13T08:39:47Z</time>
      </trkpt>
      <trkpt lat="47.97354" lon="6.68746">
        <ele>814</ele>
        <time>2011-06-13T08:39:57Z</time>
      </trkpt>
      <trkpt lat="47.97337" lon="6.68713">
        <ele>814</ele>
        <time>2011-06-13T08:40:07Z</time>
      </trkpt>
      <trkpt lat="47.97308" lon="6.68673">
        <ele>814</ele>
        <time>2011-06-13T08:40:17Z</time>
      </trkpt>
      <trkpt lat="47.97268" lon="6.68638">
        <ele>815</ele>
        <time>2011-06-13T08:40:27Z</time>
      </trkpt>
      <trkpt lat="47.97227" lon="6.68609">
        <ele>815</ele>
        <time>2011-06-13T08:40:37Z</time>
      </trkpt>
      <trkpt lat="47.97171" lon="6.6859">
        <ele>815</ele>
        <time>2011-06-13T08:40:47Z</time>
      </trkpt>
      <trkpt lat="47.97176" lon="6.68511">
        <ele>817</ele>
        <time>2011-06-13T08:40:57Z</time>
      </trkpt>
      <trkpt lat="47.97152" lon="6.68404">
        <ele>816</ele>
        <time>2011-06-13T08:41:07Z</time>
      </trkpt>
      <trkpt lat="47.97175" lon="6.6832">
        <ele>803</ele>
        <time>2011-06-13T08:41:17Z</time>
      </trkpt>
      <trkpt lat="47.97176" lon="6.68278">
        <ele>789</ele>
        <time>2011-06-13T08:41:27Z</time>
      </trkpt>
      <trkpt lat="47.97125" lon="6.68276">
        <ele>773</ele>
        <time>2011-06-13T08:41:37Z</time>
      </trkpt>
      <trkpt lat="47.97103" lon="6.68289">
        <ele>768</ele>
        <time>2011-06-13T08:41:47Z</time>
      </trkpt>
      <trkpt lat="47.97078" lon="6.68322">
        <ele>768</ele>
        <time>2011-06-13T08:41:57Z</time>
      </trkpt>
      <trkpt lat="47.97066" lon="6.68357">
        <ele>771</ele>
        <time>2011-06-13T08:42:07Z</time>
      </trkpt>
      <trkpt lat="47.97057" lon="6.68389">
        <ele>776</ele>
        <time>2011-06-13T08:42:17Z</time>
      </trkpt>
      <trkpt lat="47.97055" lon="6.6842">
        <ele>779</ele>
        <time>2011-06-13T08:42:27Z</time>
      </trkpt>
      <trkpt lat="47.97046" lon="6.68454">
        <ele>782</ele>
        <time>2011-06-13T08:42:37Z</time>
      </trkpt>
      <trkpt lat="47.97018" lon="6.68492">
        <ele>788</ele>
        <time>2011-06-13T08:42:47Z</time>
      </trkpt>
      <trkpt lat="47.96985" lon="6.68562">
        <ele>793</ele>
        <time>2011-06-13T08:42:57Z</time>
      </trkpt>
      <trkpt lat="47.96964" lon="6.68617">
        <ele>793</ele>
        <time>2011-06-13T08:43:07Z</time>
      </trkpt>
      <trkpt lat="47.96944" lon="6.6868">
        <ele>789</ele>
        <time>2011-06-13T08:43:18Z</time>
      </trkpt>
      <trkpt lat="47.96939" lon="6.68749">
        <ele>786</ele>
        <time>2011-06-13T08:43:28Z</time>
      </trkpt>
      <trkpt lat="47.96949" lon="6.68846">
        <ele>772</ele>
        <time>2011-06-13T08:43:38Z</time>
      </trkpt>
      <trkpt lat="47.96955" lon="6.6892">
        <ele>774</ele>
        <time>2011-06-13T08:43:48Z</time>
      </trkpt>
      <trkpt lat="47.96943" lon="6.68969">
        <ele>779</ele>
        <time>2011-06-13T08:43:58Z</time>
      </trkpt>
      <trkpt lat="47.96931" lon="6.6905">
        <ele>779</ele>
        <time>2011-06-13T08:44:08Z</time>
      </trkpt>
      <trkpt lat="47.96922" lon="6.69109">
        <ele>779</ele>
        <time>2011-06-13T08:44:18Z</time>
      </trkpt>
      <trkpt lat="47.96905" lon="6.69179">
        <ele>776</ele>
        <time>2011-06-13T08:44:28Z</time>
      </trkpt>
      <trkpt lat="47.96888" lon="6.69249">
        <ele>760</ele>
        <time>2011-06-13T08:44:38Z</time>
      </trkpt>
      <trkpt lat="47.96877" lon="6.69307">
        <ele>748</ele>
        <time>2011-06-13T08:44:49Z</time>
      </trkpt>
      <trkpt lat="47.96844" lon="6.69383">
        <ele>737</ele>
        <time>2011-06-13T08:44:59Z</time>
      </trkpt>
      <trkpt lat="47.96812" lon="6.69447">
        <ele>729</ele>
        <time>2011-06-13T08:45:09Z</time>
      </trkpt>
      <trkpt lat="47.96796" lon="6.69495">
        <ele>719</ele>
        <time>2011-06-13T08:45:19Z</time>
      </trkpt>
      <trkpt lat="47.96764" lon="6.69556">
        <ele>709</ele>
        <time>2011-06-13T08:45:29Z</time>
      </trkpt>
      <trkpt lat="47.96743" lon="6.69602">
        <ele>703</ele>
        <time>2011-06-13T08:45:39Z</time>
      </trkpt>
      <trkpt lat="47.96715" lon="6.69631">
        <ele>703</ele>
        <time>2011-06-13T08:45:49Z</time>
      </trkpt>
      <trkpt lat="47.96692" lon="6.69658">
        <ele>702</ele>
        <time>2011-06-13T08:45:59Z</time>
      </trkpt>
      <trkpt lat="47.96685" lon="6.69665">
        <ele>702</ele>
        <time>2011-06-13T08:46:09Z</time>
      </trkpt>
      <trkpt lat="47.96688" lon="6.69657">
        <ele>693</ele>
        <time>2011-06-13T08:46:19Z</time>
      </trkpt>
      <trkpt lat="47.96692" lon="6.69647">
        <ele>691</ele>
        <time>2011-06-13T08:46:29Z</time>
      </trkpt>
      <trkpt lat="47.96699" lon="6.69633">
        <ele>690</ele>
        <time>2011-06-13T08:46:39Z</time>
      </trkpt>
      <trkpt lat="47.96703" lon="6.69606">
        <ele>690</ele>
        <time>2011-06-13T08:46:49Z</time>
      </trkpt>
      <trkpt lat="47.96709" lon="6.6959">
        <ele>691</ele>
        <time>2011-06-13T08:46:59Z</time>
      </trkpt>
      <trkpt lat="47.96708" lon="6.69569">
        <ele>696</ele>
        <time>2011-06-13T08:47:09Z</time>
      </trkpt>
      <trkpt lat="47.96717" lon="6.69559">
        <ele>697</ele>
        <time>2011-06-13T08:47:19Z</time>
      </trkpt>
      <trkpt lat="47.96721" lon="6.69558">
        <ele>694</ele>
        <time>2011-06-13T08:47:30Z</time>
      </trkpt>
      <trkpt lat="47.96725" lon="6.69544">
        <ele>693</ele>
        <time>2011-06-13T08:47:41Z</time>
      </trkpt>
      <trkpt lat="47.96724" lon="6.69533">
        <ele>688</ele>
        <time>2011-06-13T08:47:51Z</time>
      </trkpt>
      <trkpt lat="47.96726" lon="6.6951">
        <ele>688</ele>
        <time>2011-06-13T08:48:01Z</time>
      </trkpt>
      <trkpt lat="47.96727" lon="6.69495">
        <ele>690</ele>
        <time>2011-06-13T08:48:12Z</time>
      </trkpt>
      <trkpt lat="47.9673" lon="6.69487">
        <ele>689</ele>
        <time>2011-06-13T08:48:23Z</time>
      </trkpt>
      <trkpt lat="47.96732" lon="6.69475">
        <ele>689</ele>
        <time>2011-06-13T08:48:33Z</time>
      </trkpt>
      <trkpt lat="47.96736" lon="6.69458">
        <ele>689</ele>
        <time>2011-06-13T08:48:43Z</time>
      </trkpt>
      <trkpt lat="47.96742" lon="6.69423">
        <ele>689</ele>
        <time>2011-06-13T08:48:53Z</time>
      </trkpt>
      <trkpt lat="47.96738" lon="6.69413">
        <ele>689</ele>
        <time>2011-06-13T08:49:03Z</time>
      </trkpt>
      <trkpt lat="47.96744" lon="6.69391">
        <ele>690</ele>
        <time>2011-06-13T08:49:13Z</time>
      </trkpt>
      <trkpt lat="47.96745" lon="6.69379">
        <ele>690</ele>
        <time>2011-06-13T08:49:23Z</time>
      </trkpt>
      <trkpt lat="47.96749" lon="6.69374">
        <ele>690</ele>
        <time>2011-06-13T08:49:33Z</time>
      </trkpt>
      <trkpt lat="47.96748" lon="6.69338">
        <ele>690</ele>
        <time>2011-06-13T08:49:43Z</time>
      </trkpt>
      <trkpt lat="47.96748" lon="6.69307">
        <ele>689</ele>
        <time>2011-06-13T08:49:53Z</time>
      </trkpt>
      <trkpt lat="47.96748" lon="6.69288">
        <ele>688</ele>
        <time>2011-06-13T08:50:04Z</time>
      </trkpt>
      <trkpt lat="47.96751" lon="6.69278">
        <ele>688</ele>
        <time>2011-06-13T08:50:14Z</time>
      </trkpt>
      <trkpt lat="47.96749" lon="6.69243">
        <ele>691</ele>
        <time>2011-06-13T08:50:24Z</time>
      </trkpt>
      <trkpt lat="47.96749" lon="6.69209">
        <ele>687</ele>
        <time>2011-06-13T08:50:34Z</time>
      </trkpt>
      <trkpt lat="47.96747" lon="6.69186">
        <ele>681</ele>
        <time>2011-06-13T08:50:45Z</time>
      </trkpt>
      <trkpt lat="47.96748" lon="6.69175">
        <ele>675</ele>
        <time>2011-06-13T08:50:56Z</time>
      </trkpt>
      <trkpt lat="47.96745" lon="6.69176">
        <ele>675</ele>
        <time>2011-06-13T08:51:06Z</time>
      </trkpt>
      <trkpt lat="47.96741" lon="6.69154">
        <ele>681</ele>
        <time>2011-06-13T08:51:16Z</time>
      </trkpt>
      <trkpt lat="47.96746" lon="6.69124">
        <ele>677</ele>
        <time>2011-06-13T08:51:26Z</time>
      </trkpt>
      <trkpt lat="47.96746" lon="6.69078">
        <ele>677</ele>
        <time>2011-06-13T08:51:36Z</time>
      </trkpt>
      <trkpt lat="47.96746" lon="6.69054">
        <ele>677</ele>
        <time>2011-06-13T08:51:46Z</time>
      </trkpt>
      <trkpt lat="47.96746" lon="6.69038">
        <ele>677</ele>
        <time>2011-06-13T08:51:56Z</time>
      </trkpt>
      <trkpt lat="47.96749" lon="6.69023">
        <ele>677</ele>
        <time>2011-06-13T08:52:06Z</time>
      </trkpt>
      <trkpt lat="47.96751" lon="6.69015">
        <ele>677</ele>
        <time>2011-06-13T08:52:17Z</time>
      </trkpt>
      <trkpt lat="47.96756" lon="6.6899">
        <ele>677</ele>
        <time>2011-06-13T08:52:27Z</time>
      </trkpt>
      <trkpt lat="47.96761" lon="6.68956">
        <ele>677</ele>
        <time>2011-06-13T08:52:37Z</time>
      </trkpt>
      <trkpt lat="47.96765" lon="6.68931">
        <ele>673</ele>
        <time>2011-06-13T08:52:47Z</time>
      </trkpt>
      <trkpt lat="47.96766" lon="6.68928">
        <ele>665</ele>
        <time>2011-06-13T08:52:57Z</time>
      </trkpt>
      <trkpt lat="47.96764" lon="6.68914">
        <ele>664</ele>
        <time>2011-06-13T08:53:07Z</time>
      </trkpt>
      <trkpt lat="47.9676" lon="6.68904">
        <ele>666</ele>
        <time>2011-06-13T08:53:18Z</time>
      </trkpt>
      <trkpt lat="47.96759" lon="6.68894">
        <ele>669</ele>
        <time>2011-06-13T08:53:28Z</time>
      </trkpt>
      <trkpt lat="47.96764" lon="6.68884">
        <ele>670</ele>
        <time>2011-06-13T08:53:39Z</time>
      </trkpt>
      <trkpt lat="47.96766" lon="6.68872">
        <ele>670</ele>
        <time>2011-06-13T08:53:50Z</time>
      </trkpt>
      <trkpt lat="47.96766" lon="6.68855">
        <ele>670</ele>
        <time>2011-06-13T08:54:01Z</time>
      </trkpt>
      <trkpt lat="47.9676" lon="6.68834">
        <ele>679</ele>
        <time>2011-06-13T08:54:11Z</time>
      </trkpt>
      <trkpt lat="47.96767" lon="6.68826">
        <ele>682</ele>
        <time>2011-06-13T08:54:21Z</time>
      </trkpt>
      <trkpt lat="47.96772" lon="6.68804">
        <ele>679</ele>
        <time>2011-06-13T08:54:31Z</time>
      </trkpt>
      <trkpt lat="47.96773" lon="6.68781">
        <ele>679</ele>
        <time>2011-06-13T08:54:42Z</time>
      </trkpt>
      <trkpt lat="47.96776" lon="6.68768">
        <ele>679</ele>
        <time>2011-06-13T08:54:52Z</time>
      </trkpt>
      <trkpt lat="47.96777" lon="6.68754">
        <ele>679</ele>
        <time>2011-06-13T08:55:02Z</time>
      </trkpt>
      <trkpt lat="47.96772" lon="6.68746">
        <ele>684</ele>
        <time>2011-06-13T08:55:14Z</time>
      </trkpt>
      <trkpt lat="47.9678" lon="6.68746">
        <ele>687</ele>
        <time>2011-06-13T08:55:24Z</time>
      </trkpt>
      <trkpt lat="47.96785" lon="6.68732">
        <ele>685</ele>
        <time>2011-06-13T08:55:34Z</time>
      </trkpt>
      <trkpt lat="47.96789" lon="6.68698">
        <ele>685</ele>
        <time>2011-06-13T08:55:44Z</time>
      </trkpt>
      <trkpt lat="47.96789" lon="6.68657">
        <ele>685</ele>
        <time>2011-06-13T08:55:54Z</time>
      </trkpt>
      <trkpt lat="47.96792" lon="6.68624">
        <ele>683</ele>
        <time>2011-06-13T08:56:04Z</time>
      </trkpt>
      <trkpt lat="47.96796" lon="6.68577">
        <ele>683</ele>
        <time>2011-06-13T08:56:14Z</time>
      </trkpt>
      <trkpt lat="47.96804" lon="6.68532">
        <ele>683</ele>
        <time>2011-06-13T08:56:24Z</time>
      </trkpt>
      <trkpt lat="47.968" lon="6.68472">
        <ele>683</ele>
        <time>2011-06-13T08:56:34Z</time>
      </trkpt>
      <trkpt lat="47.9682" lon="6.68382">
        <ele>685</ele>
        <time>2011-06-13T08:56:44Z</time>
      </trkpt>
      <trkpt lat="47.96815" lon="6.68375">
        <ele>687</ele>
        <time>2011-06-13T08:56:56Z</time>
      </trkpt>
      <trkpt lat="47.96807" lon="6.68386">
        <ele>689</ele>
        <time>2011-06-13T08:57:06Z</time>
      </trkpt>
      <trkpt lat="47.96813" lon="6.6839">
        <ele>688</ele>
        <time>2011-06-13T08:57:18Z</time>
      </trkpt>
      <trkpt lat="47.96814" lon="6.68393">
        <ele>689</ele>
        <time>2011-06-13T08:57:31Z</time>
      </trkpt>
      <trkpt lat="47.96811" lon="6.68393">
        <ele>695</ele>
        <time>2011-06-13T08:57:43Z</time>
      </trkpt>
      <trkpt lat="47.96809" lon="6.68389">
        <ele>695</ele>
        <time>2011-06-13T08:57:54Z</time>
      </trkpt>
      <trkpt lat="47.96817" lon="6.6839">
        <ele>684</ele>
        <time>2011-06-13T08:58:05Z</time>
      </trkpt>
      <trkpt lat="47.96816" lon="6.68391">
        <ele>674</ele>
        <time>2011-06-13T08:58:15Z</time>
      </trkpt>
      <trkpt lat="47.96814" lon="6.68387">
        <ele>677</ele>
        <time>2011-06-13T08:58:29Z</time>
      </trkpt>
      <trkpt lat="47.96814" lon="6.68378">
        <ele>691</ele>
        <time>2011-06-13T08:58:44Z</time>
      </trkpt>
      <trkpt lat="47.96819" lon="6.68379">
        <ele>691</ele>
        <time>2011-06-13T08:58:56Z</time>
      </trkpt>
      <trkpt lat="47.96825" lon="6.68372">
        <ele>680</ele>
        <time>2011-06-13T08:59:06Z</time>
      </trkpt>
      <trkpt lat="47.96815" lon="6.68368">
        <ele>682</ele>
        <time>2011-06-13T08:59:17Z</time>
      </trkpt>
      <trkpt lat="47.96817" lon="6.6836">
        <ele>681</ele>
        <time>2011-06-13T08:59:30Z</time>
      </trkpt>
      <trkpt lat="47.96821" lon="6.68366">
        <ele>686</ele>
        <time>2011-06-13T08:59:41Z</time>
      </trkpt>
      <trkpt lat="47.96809" lon="6.68368">
        <ele>681</ele>
        <time>2011-06-13T08:59:53Z</time>
      </trkpt>
      <trkpt lat="47.96803" lon="6.68364">
        <ele>692</ele>
        <time>2011-06-13T09:00:04Z</time>
      </trkpt>
      <trkpt lat="47.96807" lon="6.68367">
        <ele>686</ele>
        <time>2011-06-13T09:00:16Z</time>
      </trkpt>
      <trkpt lat="47.96819" lon="6.6837">
        <ele>680</ele>
        <time>2011-06-13T09:00:28Z</time>
      </trkpt>
      <trkpt lat="47.96817" lon="6.68377">
        <ele>677</ele>
        <time>2011-06-13T09:00:38Z</time>
      </trkpt>
      <trkpt lat="47.96814" lon="6.68374">
        <ele>677</ele>
        <time>2011-06-13T09:00:52Z</time>
      </trkpt>
      <trkpt lat="47.96817" lon="6.68379">
        <ele>681</ele>
        <time>2011-06-13T09:01:02Z</time>
      </trkpt>
      <trkpt lat="47.9682" lon="6.68378">
        <ele>684</ele>
        <time>2011-06-13T09:01:23Z</time>
      </trkpt>
      <trkpt lat="47.96823" lon="6.68376">
        <ele>684</ele>
        <time>2011-06-13T09:01:34Z</time>
      </trkpt>
      <trkpt lat="47.96816" lon="6.68381">
        <ele>684</ele>
        <time>2011-06-13T09:01:47Z</time>
      </trkpt>
      <trkpt lat="47.96813" lon="6.68377">
        <ele>682</ele>
        <time>2011-06-13T09:01:57Z</time>
      </trkpt>
      <trkpt lat="47.96817" lon="6.68377">
        <ele>688</ele>
        <time>2011-06-13T09:02:08Z</time>
      </trkpt>
      <trkpt lat="47.96819" lon="6.68378">
        <ele>688</ele>
        <time>2011-06-13T09:02:21Z</time>
      </trkpt>
      <trkpt lat="47.96828" lon="6.68371">
        <ele>678</ele>
        <time>2011-06-13T09:02:35Z</time>
      </trkpt>
      <trkpt lat="47.96826" lon="6.6837">
        <ele>664</ele>
        <time>2011-06-13T09:02:53Z</time>
      </trkpt>
      <trkpt lat="47.9682" lon="6.68362">
        <ele>668</ele>
        <time>2011-06-13T09:03:04Z</time>
      </trkpt>
      <trkpt lat="47.96828" lon="6.68361">
        <ele>674</ele>
        <time>2011-06-13T09:03:14Z</time>
      </trkpt>
      <trkpt lat="47.96825" lon="6.68362">
        <ele>683</ele>
        <time>2011-06-13T09:03:25Z</time>
      </trkpt>
      <trkpt lat="47.96818" lon="6.68363">
        <ele>689</ele>
        <time>2011-06-13T09:03:35Z</time>
      </trkpt>
      <trkpt lat="47.96814" lon="6.68373">
        <ele>681</ele>
        <time>2011-06-13T09:03:45Z</time>
      </trkpt>
      <trkpt lat="47.96809" lon="6.68375">
        <ele>674</ele>
        <time>2011-06-13T09:03:57Z</time>
      </trkpt>
      <trkpt lat="47.96815" lon="6.68375">
        <ele>690</ele>
        <time>2011-06-13T09:04:08Z</time>
      </trkpt>
      <trkpt lat="47.96814" lon="6.68382">
        <ele>690</ele>
        <time>2011-06-13T09:04:19Z</time>
      </trkpt>
      <trkpt lat="47.96812" lon="6.68376">
        <ele>690</ele>
        <time>2011-06-13T09:04:29Z</time>
      </trkpt>
      <trkpt lat="47.96819" lon="6.68374">
        <ele>687</ele>
        <time>2011-06-13T09:04:43Z</time>
      </trkpt>
      <trkpt lat="47.96818" lon="6.68374">
        <ele>686</ele>
        <time>2011-06-13T09:04:53Z</time>
      </trkpt>
      <trkpt lat="47.96817" lon="6.68365">
        <ele>685</ele>
        <time>2011-06-13T09:05:03Z</time>
      </trkpt>
      <trkpt lat="47.96817" lon="6.68323">
        <ele>679</ele>
        <time>2011-06-13T09:05:13Z</time>
      </trkpt>
      <trkpt lat="47.96827" lon="6.68276">
        <ele>677</ele>
        <time>2011-06-13T09:05:23Z</time>
      </trkpt>
      <trkpt lat="47.96841" lon="6.68206">
        <ele>673</ele>
        <time>2011-06-13T09:05:33Z</time>
      </trkpt>
      <trkpt lat="47.96854" lon="6.68144">
        <ele>673</ele>
        <time>2011-06-13T09:05:43Z</time>
      </trkpt>
      <trkpt lat="47.96865" lon="6.68069">
        <ele>673</ele>
        <time>2011-06-13T09:05:53Z</time>
      </trkpt>
      <trkpt lat="47.96878" lon="6.68002">
        <ele>674</ele>
        <time>2011-06-13T09:06:03Z</time>
      </trkpt>
      <trkpt lat="47.96896" lon="6.67944">
        <ele>674</ele>
        <time>2011-06-13T09:06:13Z</time>
      </trkpt>
      <trkpt lat="47.96937" lon="6.6787">
        <ele>672</ele>
        <time>2011-06-13T09:06:23Z</time>
      </trkpt>
      <trkpt lat="47.96997" lon="6.67812">
        <ele>668</ele>
        <time>2011-06-13T09:06:33Z</time>
      </trkpt>
      <trkpt lat="47.97051" lon="6.67812">
        <ele>658</ele>
        <time>2011-06-13T09:06:43Z</time>
      </trkpt>
      <trkpt lat="47.97059" lon="6.67758">
        <ele>657</ele>
        <time>2011-06-13T09:06:53Z</time>
      </trkpt>
      <trkpt lat="47.9706" lon="6.67687">
        <ele>655</ele>
        <time>2011-06-13T09:07:03Z</time>
      </trkpt>
      <trkpt lat="47.97054" lon="6.67648">
        <ele>652</ele>
        <time>2011-06-13T09:07:13Z</time>
      </trkpt>
      <trkpt lat="47.97073" lon="6.67666">
        <ele>645</ele>
        <time>2011-06-13T09:07:23Z</time>
      </trkpt>
      <trkpt lat="47.97102" lon="6.67691">
        <ele>641</ele>
        <time>2011-06-13T09:07:33Z</time>
      </trkpt>
      <trkpt lat="47.97134" lon="6.67695">
        <ele>635</ele>
        <time>2011-06-13T09:07:43Z</time>
      </trkpt>
      <trkpt lat="47.97162" lon="6.67708">
        <ele>631</ele>
        <time>2011-06-13T09:07:53Z</time>
      </trkpt>
      <trkpt lat="47.97186" lon="6.67719">
        <ele>631</ele>
        <time>2011-06-13T09:08:03Z</time>
      </trkpt>
      <trkpt lat="47.97206" lon="6.67735">
        <ele>633</ele>
        <time>2011-06-13T09:08:13Z</time>
      </trkpt>
      <trkpt lat="47.9723" lon="6.67734">
        <ele>639</ele>
        <time>2011-06-13T09:08:23Z</time>
      </trkpt>
      <trkpt lat="47.97243" lon="6.67735">
        <ele>646</ele>
        <time>2011-06-13T09:08:34Z</time>
      </trkpt>
      <trkpt lat="47.97261" lon="6.67733">
        <ele>647</ele>
        <time>2011-06-13T09:08:44Z</time>
      </trkpt>
      <trkpt lat="47.97286" lon="6.67725">
        <ele>643</ele>
        <time>2011-06-13T09:08:54Z</time>
      </trkpt>
      <trkpt lat="47.97316" lon="6.67713">
        <ele>639</ele>
        <time>2011-06-13T09:09:04Z</time>
      </trkpt>
      <trkpt lat="47.9734" lon="6.67698">
        <ele>639</ele>
        <time>2011-06-13T09:09:14Z</time>
      </trkpt>
      <trkpt lat="47.9738" lon="6.67734">
        <ele>639</ele>
        <time>2011-06-13T09:09:24Z</time>
      </trkpt>
      <trkpt lat="47.97425" lon="6.6771">
        <ele>636</ele>
        <time>2011-06-13T09:09:34Z</time>
      </trkpt>
      <trkpt lat="47.97461" lon="6.67728">
        <ele>634</ele>
        <time>2011-06-13T09:09:44Z</time>
      </trkpt>
      <trkpt lat="47.97482" lon="6.67702">
        <ele>636</ele>
        <time>2011-06-13T09:09:54Z</time>
      </trkpt>
      <trkpt lat="47.97523" lon="6.67683">
        <ele>633</ele>
        <time>2011-06-13T09:10:04Z</time>
      </trkpt>
      <trkpt lat="47.97552" lon="6.67672">
        <ele>619</ele>
        <time>2011-06-13T09:10:14Z</time>
      </trkpt>
      <trkpt lat="47.97579" lon="6.67674">
        <ele>611</ele>
        <time>2011-06-13T09:10:24Z</time>
      </trkpt>
      <trkpt lat="47.97585" lon="6.6765">
        <ele>607</ele>
        <time>2011-06-13T09:10:34Z</time>
      </trkpt>
      <trkpt lat="47.97593" lon="6.67627">
        <ele>619</ele>
        <time>2011-06-13T09:10:44Z</time>
      </trkpt>
      <trkpt lat="47.97602" lon="6.67628">
        <ele>635</ele>
        <time>2011-06-13T09:10:54Z</time>
      </trkpt>
      <trkpt lat="47.97615" lon="6.67646">
        <ele>636</ele>
        <time>2011-06-13T09:11:04Z</time>
      </trkpt>
      <trkpt lat="47.97631" lon="6.67664">
        <ele>636</ele>
        <time>2011-06-13T09:11:14Z</time>
      </trkpt>
      <trkpt lat="47.97647" lon="6.67681">
        <ele>636</ele>
        <time>2011-06-13T09:11:24Z</time>
      </trkpt>
      <trkpt lat="47.97663" lon="6.67693">
        <ele>636</ele>
        <time>2011-06-13T09:11:34Z</time>
      </trkpt>
      <trkpt lat="47.97681" lon="6.677">
        <ele>636</ele>
        <time>2011-06-13T09:11:44Z</time>
      </trkpt>
      <trkpt lat="47.97691" lon="6.67722">
        <ele>636</ele>
        <time>2011-06-13T09:11:54Z</time>
      </trkpt>
      <trkpt lat="47.97697" lon="6.67742">
        <ele>636</ele>
        <time>2011-06-13T09:12:04Z</time>
      </trkpt>
      <trkpt lat="47.97708" lon="6.67761">
        <ele>638</ele>
        <time>2011-06-13T09:12:14Z</time>
      </trkpt>
      <trkpt lat="47.97718" lon="6.67786">
        <ele>638</ele>
        <time>2011-06-13T09:12:24Z</time>
      </trkpt>
      <trkpt lat="47.97728" lon="6.67807">
        <ele>638</ele>
        <time>2011-06-13T09:12:34Z</time>
      </trkpt>
      <trkpt lat="47.97738" lon="6.67823">
        <ele>638</ele>
        <time>2011-06-13T09:12:44Z</time>
      </trkpt>
      <trkpt lat="47.9775" lon="6.6783">
        <ele>644</ele>
        <time>2011-06-13T09:12:54Z</time>
      </trkpt>
      <trkpt lat="47.97763" lon="6.67843">
        <ele>648</ele>
        <time>2011-06-13T09:13:04Z</time>
      </trkpt>
      <trkpt lat="47.97777" lon="6.67849">
        <ele>652</ele>
        <time>2011-06-13T09:13:14Z</time>
      </trkpt>
      <trkpt lat="47.97788" lon="6.67851">
        <ele>653</ele>
        <time>2011-06-13T09:13:25Z</time>
      </trkpt>
      <trkpt lat="47.97779" lon="6.67822">
        <ele>653</ele>
        <time>2011-06-13T09:13:35Z</time>
      </trkpt>
      <trkpt lat="47.97768" lon="6.67771">
        <ele>657</ele>
        <time>2011-06-13T09:13:45Z</time>
      </trkpt>
      <trkpt lat="47.97765" lon="6.67741">
        <ele>662</ele>
        <time>2011-06-13T09:13:55Z</time>
      </trkpt>
      <trkpt lat="47.97762" lon="6.67715">
        <ele>667</ele>
        <time>2011-06-13T09:14:05Z</time>
      </trkpt>
      <trkpt lat="47.97757" lon="6.67697">
        <ele>668</ele>
        <time>2011-06-13T09:14:15Z</time>
      </trkpt>
      <trkpt lat="47.97741" lon="6.67669">
        <ele>674</ele>
        <time>2011-06-13T09:14:25Z</time>
      </trkpt>
      <trkpt lat="47.97723" lon="6.67643">
        <ele>676</ele>
        <time>2011-06-13T09:14:35Z</time>
      </trkpt>
      <trkpt lat="47.97707" lon="6.67606">
        <ele>683</ele>
        <time>2011-06-13T09:14:45Z</time>
      </trkpt>
      <trkpt lat="47.97689" lon="6.67572">
        <ele>690</ele>
        <time>2011-06-13T09:14:55Z</time>
      </trkpt>
      <trkpt lat="47.97674" lon="6.67541">
        <ele>690</ele>
        <time>2011-06-13T09:15:05Z</time>
      </trkpt>
      <trkpt lat="47.97654" lon="6.67505">
        <ele>692</ele>
        <time>2011-06-13T09:15:15Z</time>
      </trkpt>
      <trkpt lat="47.97642" lon="6.67478">
        <ele>695</ele>
        <time>2011-06-13T09:15:25Z</time>
      </trkpt>
      <trkpt lat="47.97631" lon="6.67452">
        <ele>696</ele>
        <time>2011-06-13T09:15:35Z</time>
      </trkpt>
      <trkpt lat="47.97612" lon="6.67417">
        <ele>696</ele>
        <time>2011-06-13T09:15:45Z</time>
      </trkpt>
      <trkpt lat="47.97584" lon="6.67383">
        <ele>700</ele>
        <time>2011-06-13T09:15:55Z</time>
      </trkpt>
      <trkpt lat="47.9757" lon="6.67358">
        <ele>703</ele>
        <time>2011-06-13T09:16:05Z</time>
      </trkpt>
      <trkpt lat="47.97563" lon="6.67358">
        <ele>704</ele>
        <time>2011-06-13T09:16:17Z</time>
      </trkpt>
      <trkpt lat="47.97563" lon="6.67364">
        <ele>686</ele>
        <time>2011-06-13T09:16:30Z</time>
      </trkpt>
      <trkpt lat="47.97563" lon="6.67373">
        <ele>687</ele>
        <time>2011-06-13T09:16:42Z</time>
      </trkpt>
      <trkpt lat="47.97562" lon="6.67381">
        <ele>694</ele>
        <time>2011-06-13T09:16:54Z</time>
      </trkpt>
      <trkpt lat="47.97564" lon="6.67367">
        <ele>691</ele>
        <time>2011-06-13T09:17:05Z</time>
      </trkpt>
      <trkpt lat="47.97563" lon="6.67359">
        <ele>690</ele>
        <time>2011-06-13T09:17:17Z</time>
      </trkpt>
      <trkpt lat="47.97547" lon="6.67344">
        <ele>688</ele>
        <time>2011-06-13T09:17:27Z</time>
      </trkpt>
      <trkpt lat="47.97521" lon="6.67305">
        <ele>688</ele>
        <time>2011-06-13T09:17:37Z</time>
      </trkpt>
      <trkpt lat="47.97502" lon="6.67263">
        <ele>688</ele>
        <time>2011-06-13T09:17:47Z</time>
      </trkpt>
      <trkpt lat="47.9749" lon="6.67211">
        <ele>685</ele>
        <time>2011-06-13T09:17:57Z</time>
      </trkpt>
      <trkpt lat="47.97488" lon="6.67158">
        <ele>684</ele>
        <time>2011-06-13T09:18:07Z</time>
      </trkpt>
      <trkpt lat="47.97515" lon="6.67127">
        <ele>682</ele>
        <time>2011-06-13T09:18:17Z</time>
      </trkpt>
      <trkpt lat="47.97533" lon="6.67101">
        <ele>673</ele>
        <time>2011-06-13T09:18:27Z</time>
      </trkpt>
      <trkpt lat="47.97538" lon="6.67098">
        <ele>673</ele>
        <time>2011-06-13T09:18:37Z</time>
      </trkpt>
      <trkpt lat="47.97575" lon="6.67079">
        <ele>676</ele>
        <time>2011-06-13T09:18:47Z</time>
      </trkpt>
      <trkpt lat="47.97617" lon="6.67054">
        <ele>676</ele>
        <time>2011-06-13T09:18:57Z</time>
      </trkpt>
      <trkpt lat="47.97641" lon="6.67019">
        <ele>680</ele>
        <time>2011-06-13T09:19:07Z</time>
      </trkpt>
      <trkpt lat="47.97665" lon="6.67019">
        <ele>672</ele>
        <time>2011-06-13T09:19:17Z</time>
      </trkpt>
      <trkpt lat="47.97719" lon="6.67008">
        <ele>670</ele>
        <time>2011-06-13T09:19:27Z</time>
      </trkpt>
      <trkpt lat="47.97774" lon="6.66979">
        <ele>669</ele>
        <time>2011-06-13T09:19:37Z</time>
      </trkpt>
      <trkpt lat="47.97809" lon="6.66953">
        <ele>661</ele>
        <time>2011-06-13T09:19:48Z</time>
      </trkpt>
      <trkpt lat="47.97805" lon="6.66947">
        <ele>657</ele>
        <time>2011-06-13T09:19:59Z</time>
      </trkpt>
      <trkpt lat="47.978" lon="6.66924">
        <ele>655</ele>
        <time>2011-06-13T09:20:09Z</time>
      </trkpt>
      <trkpt lat="47.97808" lon="6.66877">
        <ele>653</ele>
        <time>2011-06-13T09:20:19Z</time>
      </trkpt>
      <trkpt lat="47.97813" lon="6.6684">
        <ele>645</ele>
        <time>2011-06-13T09:20:29Z</time>
      </trkpt>
      <trkpt lat="47.97807" lon="6.66776">
        <ele>644</ele>
        <time>2011-06-13T09:20:39Z</time>
      </trkpt>
      <trkpt lat="47.97829" lon="6.66714">
        <ele>643</ele>
        <time>2011-06-13T09:20:49Z</time>
      </trkpt>
      <trkpt lat="47.97813" lon="6.66697">
        <ele>646</ele>
        <time>2011-06-13T09:20:59Z</time>
      </trkpt>
      <trkpt lat="47.97806" lon="6.6667">
        <ele>646</ele>
        <time>2011-06-13T09:21:09Z</time>
      </trkpt>
      <trkpt lat="47.97807" lon="6.66642">
        <ele>642</ele>
        <time>2011-06-13T09:21:19Z</time>
      </trkpt>
      <trkpt lat="47.97808" lon="6.66613">
        <ele>644</ele>
        <time>2011-06-13T09:21:29Z</time>
      </trkpt>
      <trkpt lat="47.97816" lon="6.66583">
        <ele>652</ele>
        <time>2011-06-13T09:21:39Z</time>
      </trkpt>
      <trkpt lat="47.97823" lon="6.66554">
        <ele>652</ele>
        <time>2011-06-13T09:21:49Z</time>
      </trkpt>
      <trkpt lat="47.97816" lon="6.66532">
        <ele>653</ele>
        <time>2011-06-13T09:21:59Z</time>
      </trkpt>
      <trkpt lat="47.9779" lon="6.66516">
        <ele>655</ele>
        <time>2011-06-13T09:22:09Z</time>
      </trkpt>
      <trkpt lat="47.97768" lon="6.66494">
        <ele>655</ele>
        <time>2011-06-13T09:22:19Z</time>
      </trkpt>
      <trkpt lat="47.97751" lon="6.66432">
        <ele>656</ele>
        <time>2011-06-13T09:22:29Z</time>
      </trkpt>
      <trkpt lat="47.97728" lon="6.66356">
        <ele>656</ele>
        <time>2011-06-13T09:22:39Z</time>
      </trkpt>
      <trkpt lat="47.97739" lon="6.663">
        <ele>654</ele>
        <time>2011-06-13T09:22:49Z</time>
      </trkpt>
      <trkpt lat="47.97726" lon="6.66249">
        <ele>648</ele>
        <time>2011-06-13T09:22:59Z</time>
      </trkpt>
      <trkpt lat="47.97735" lon="6.66171">
        <ele>641</ele>
        <time>2011-06-13T09:23:09Z</time>
      </trkpt>
      <trkpt lat="47.9778" lon="6.66076">
        <ele>630</ele>
        <time>2011-06-13T09:23:19Z</time>
      </trkpt>
      <trkpt lat="47.97823" lon="6.66066">
        <ele>622</ele>
        <time>2011-06-13T09:23:29Z</time>
      </trkpt>
      <trkpt lat="47.97844" lon="6.66086">
        <ele>621</ele>
        <time>2011-06-13T09:23:39Z</time>
      </trkpt>
      <trkpt lat="47.9786" lon="6.66095">
        <ele>626</ele>
        <time>2011-06-13T09:23:49Z</time>
      </trkpt>
      <trkpt lat="47.97876" lon="6.66097">
        <ele>636</ele>
        <time>2011-06-13T09:23:59Z</time>
      </trkpt>
      <trkpt lat="47.97895" lon="6.66103">
        <ele>644</ele>
        <time>2011-06-13T09:24:09Z</time>
      </trkpt>
      <trkpt lat="47.97911" lon="6.66114">
        <ele>644</ele>
        <time>2011-06-13T09:24:19Z</time>
      </trkpt>
      <trkpt lat="47.97929" lon="6.66122">
        <ele>647</ele>
        <time>2011-06-13T09:24:29Z</time>
      </trkpt>
      <trkpt lat="47.97954" lon="6.6613">
        <ele>651</ele>
        <time>2011-06-13T09:24:39Z</time>
      </trkpt>
      <trkpt lat="47.97977" lon="6.66139">
        <ele>651</ele>
        <time>2011-06-13T09:24:49Z</time>
      </trkpt>
      <trkpt lat="47.98004" lon="6.66154">
        <ele>651</ele>
        <time>2011-06-13T09:24:59Z</time>
      </trkpt>
      <trkpt lat="47.98035" lon="6.66162">
        <ele>645</ele>
        <time>2011-06-13T09:25:09Z</time>
      </trkpt>
      <trkpt lat="47.98056" lon="6.66168">
        <ele>647</ele>
        <time>2011-06-13T09:25:20Z</time>
      </trkpt>
      <trkpt lat="47.98063" lon="6.66161">
        <ele>654</ele>
        <time>2011-06-13T09:25:30Z</time>
      </trkpt>
      <trkpt lat="47.98115" lon="6.66173">
        <ele>644</ele>
        <time>2011-06-13T09:25:40Z</time>
      </trkpt>
      <trkpt lat="47.98166" lon="6.66236">
        <ele>632</ele>
        <time>2011-06-13T09:25:50Z</time>
      </trkpt>
      <trkpt lat="47.98201" lon="6.6628">
        <ele>632</ele>
        <time>2011-06-13T09:26:00Z</time>
      </trkpt>
      <trkpt lat="47.98252" lon="6.66262">
        <ele>632</ele>
        <time>2011-06-13T09:26:10Z</time>
      </trkpt>
      <trkpt lat="47.98306" lon="6.66244">
        <ele>634</ele>
        <time>2011-06-13T09:26:20Z</time>
      </trkpt>
      <trkpt lat="47.98333" lon="6.66175">
        <ele>630</ele>
        <time>2011-06-13T09:26:30Z</time>
      </trkpt>
      <trkpt lat="47.98318" lon="6.66068">
        <ele>626</ele>
        <time>2011-06-13T09:26:40Z</time>
      </trkpt>
      <trkpt lat="47.98314" lon="6.65962">
        <ele>627</ele>
        <time>2011-06-13T09:26:50Z</time>
      </trkpt>
      <trkpt lat="47.98321" lon="6.65846">
        <ele>637</ele>
        <time>2011-06-13T09:27:00Z</time>
      </trkpt>
      <trkpt lat="47.98312" lon="6.65739">
        <ele>637</ele>
        <time>2011-06-13T09:27:10Z</time>
      </trkpt>
      <trkpt lat="47.98304" lon="6.65636">
        <ele>637</ele>
        <time>2011-06-13T09:27:20Z</time>
      </trkpt>
      <trkpt lat="47.98292" lon="6.65554">
        <ele>631</ele>
        <time>2011-06-13T09:27:30Z</time>
      </trkpt>
      <trkpt lat="47.98309" lon="6.65449">
        <ele>621</ele>
        <time>2011-06-13T09:27:40Z</time>
      </trkpt>
      <trkpt lat="47.98294" lon="6.65365">
        <ele>616</ele>
        <time>2011-06-13T09:27:50Z</time>
      </trkpt>
      <trkpt lat="47.9827" lon="6.65278">
        <ele>615</ele>
        <time>2011-06-13T09:28:00Z</time>
      </trkpt>
      <trkpt lat="47.98298" lon="6.6515">
        <ele>611</ele>
        <time>2011-06-13T09:28:10Z</time>
      </trkpt>
      <trkpt lat="47.98337" lon="6.65037">
        <ele>606</ele>
        <time>2011-06-13T09:28:20Z</time>
      </trkpt>
      <trkpt lat="47.98385" lon="6.64958">
        <ele>601</ele>
        <time>2011-06-13T09:28:30Z</time>
      </trkpt>
      <trkpt lat="47.98411" lon="6.64851">
        <ele>601</ele>
        <time>2011-06-13T09:28:40Z</time>
      </trkpt>
      <trkpt lat="47.98446" lon="6.64762">
        <ele>597</ele>
        <time>2011-06-13T09:28:50Z</time>
      </trkpt>
      <trkpt lat="47.98477" lon="6.6469">
        <ele>595</ele>
        <time>2011-06-13T09:29:00Z</time>
      </trkpt>
      <trkpt lat="47.98488" lon="6.64678">
        <ele>594</ele>
        <time>2011-06-13T09:29:10Z</time>
      </trkpt>
      <trkpt lat="47.98504" lon="6.64664">
        <ele>604</ele>
        <time>2011-06-13T09:29:20Z</time>
      </trkpt>
      <trkpt lat="47.98519" lon="6.64651">
        <ele>608</ele>
        <time>2011-06-13T09:29:30Z</time>
      </trkpt>
      <trkpt lat="47.98535" lon="6.64623">
        <ele>610</ele>
        <time>2011-06-13T09:29:41Z</time>
      </trkpt>
      <trkpt lat="47.98577" lon="6.64551">
        <ele>605</ele>
        <time>2011-06-13T09:29:51Z</time>
      </trkpt>
      <trkpt lat="47.98621" lon="6.64507">
        <ele>593</ele>
        <time>2011-06-13T09:30:01Z</time>
      </trkpt>
      <trkpt lat="47.98663" lon="6.64471">
        <ele>588</ele>
        <time>2011-06-13T09:30:11Z</time>
      </trkpt>
      <trkpt lat="47.98716" lon="6.64403">
        <ele>583</ele>
        <time>2011-06-13T09:30:21Z</time>
      </trkpt>
      <trkpt lat="47.98759" lon="6.6435">
        <ele>580</ele>
        <time>2011-06-13T09:30:31Z</time>
      </trkpt>
      <trkpt lat="47.98799" lon="6.64312">
        <ele>581</ele>
        <time>2011-06-13T09:30:41Z</time>
      </trkpt>
      <trkpt lat="47.98831" lon="6.64282">
        <ele>590</ele>
        <time>2011-06-13T09:30:51Z</time>
      </trkpt>
      <trkpt lat="47.98872" lon="6.64239">
        <ele>593</ele>
        <time>2011-06-13T09:31:01Z</time>
      </trkpt>
      <trkpt lat="47.98906" lon="6.64205">
        <ele>589</ele>
        <time>2011-06-13T09:31:11Z</time>
      </trkpt>
      <trkpt lat="47.98945" lon="6.64189">
        <ele>589</ele>
        <time>2011-06-13T09:31:21Z</time>
      </trkpt>
      <trkpt lat="47.98972" lon="6.64175">
        <ele>583</ele>
        <time>2011-06-13T09:31:32Z</time>
      </trkpt>
      <trkpt lat="47.99021" lon="6.64123">
        <ele>568</ele>
        <time>2011-06-13T09:31:42Z</time>
      </trkpt>
      <trkpt lat="47.99059" lon="6.6408">
        <ele>557</ele>
        <time>2011-06-13T09:31:52Z</time>
      </trkpt>
      <trkpt lat="47.99085" lon="6.64068">
        <ele>560</ele>
        <time>2011-06-13T09:32:02Z</time>
      </trkpt>
      <trkpt lat="47.99113" lon="6.64068">
        <ele>569</ele>
        <time>2011-06-13T09:32:13Z</time>
      </trkpt>
      <trkpt lat="47.99163" lon="6.6408">
        <ele>568</ele>
        <time>2011-06-13T09:32:23Z</time>
      </trkpt>
      <trkpt lat="47.99211" lon="6.64087">
        <ele>559</ele>
        <time>2011-06-13T09:32:33Z</time>
      </trkpt>
      <trkpt lat="47.99241" lon="6.64083">
        <ele>556</ele>
        <time>2011-06-13T09:32:44Z</time>
      </trkpt>
      <trkpt lat="47.99259" lon="6.64078">
        <ele>556</ele>
        <time>2011-06-13T09:32:54Z</time>
      </trkpt>
      <trkpt lat="47.99274" lon="6.64075">
        <ele>558</ele>
        <time>2011-06-13T09:33:04Z</time>
      </trkpt>
      <trkpt lat="47.99293" lon="6.64079">
        <ele>558</ele>
        <time>2011-06-13T09:33:14Z</time>
      </trkpt>
      <trkpt lat="47.99308" lon="6.64084">
        <ele>558</ele>
        <time>2011-06-13T09:33:24Z</time>
      </trkpt>
      <trkpt lat="47.99327" lon="6.64089">
        <ele>555</ele>
        <time>2011-06-13T09:33:35Z</time>
      </trkpt>
      <trkpt lat="47.99342" lon="6.64094">
        <ele>551</ele>
        <time>2011-06-13T09:33:45Z</time>
      </trkpt>
      <trkpt lat="47.99356" lon="6.64102">
        <ele>547</ele>
        <time>2011-06-13T09:33:55Z</time>
      </trkpt>
      <trkpt lat="47.99371" lon="6.64116">
        <ele>544</ele>
        <time>2011-06-13T09:34:05Z</time>
      </trkpt>
      <trkpt lat="47.99373" lon="6.64143">
        <ele>544</ele>
        <time>2011-06-13T09:34:16Z</time>
      </trkpt>
      <trkpt lat="47.99356" lon="6.64177">
        <ele>544</ele>
        <time>2011-06-13T09:34:26Z</time>
      </trkpt>
      <trkpt lat="47.99341" lon="6.64185">
        <ele>550</ele>
        <time>2011-06-13T09:34:36Z</time>
      </trkpt>
      <trkpt lat="47.99328" lon="6.64204">
        <ele>550</ele>
        <time>2011-06-13T09:34:46Z</time>
      </trkpt>
      <trkpt lat="47.99322" lon="6.6422">
        <ele>551</ele>
        <time>2011-06-13T09:34:59Z</time>
      </trkpt>
      <trkpt lat="47.99318" lon="6.64233">
        <ele>554</ele>
        <time>2011-06-13T09:35:09Z</time>
      </trkpt>
      <trkpt lat="47.99308" lon="6.64248">
        <ele>554</ele>
        <time>2011-06-13T09:35:19Z</time>
      </trkpt>
      <trkpt lat="47.993" lon="6.6426">
        <ele>557</ele>
        <time>2011-06-13T09:35:29Z</time>
      </trkpt>
      <trkpt lat="47.9929" lon="6.64273">
        <ele>561</ele>
        <time>2011-06-13T09:35:39Z</time>
      </trkpt>
      <trkpt lat="47.99281" lon="6.64288">
        <ele>566</ele>
        <time>2011-06-13T09:35:50Z</time>
      </trkpt>
      <trkpt lat="47.9927" lon="6.643">
        <ele>572</ele>
        <time>2011-06-13T09:36:01Z</time>
      </trkpt>
      <trkpt lat="47.9926" lon="6.64315">
        <ele>576</ele>
        <time>2011-06-13T09:36:13Z</time>
      </trkpt>
      <trkpt lat="47.99252" lon="6.64328">
        <ele>580</ele>
        <time>2011-06-13T09:36:23Z</time>
      </trkpt>
      <trkpt lat="47.99242" lon="6.64338">
        <ele>582</ele>
        <time>2011-06-13T09:36:33Z</time>
      </trkpt>
      <trkpt lat="47.99233" lon="6.64352">
        <ele>586</ele>
        <time>2011-06-13T09:36:43Z</time>
      </trkpt>
      <trkpt lat="47.99224" lon="6.64358">
        <ele>587</ele>
        <time>2011-06-13T09:36:53Z</time>
      </trkpt>
      <trkpt lat="47.9921" lon="6.64366">
        <ele>586</ele>
        <time>2011-06-13T09:37:03Z</time>
      </trkpt>
      <trkpt lat="47.99199" lon="6.64378">
        <ele>591</ele>
        <time>2011-06-13T09:37:13Z</time>
      </trkpt>
      <trkpt lat="47.99193" lon="6.64394">
        <ele>597</ele>
        <time>2011-06-13T09:37:23Z</time>
      </trkpt>
      <trkpt lat="47.99184" lon="6.64413">
        <ele>605</ele>
        <time>2011-06-13T09:37:34Z</time>
      </trkpt>
      <trkpt lat="47.99179" lon="6.64431">
        <ele>611</ele>
        <time>2011-06-13T09:37:44Z</time>
      </trkpt>
      <trkpt lat="47.99174" lon="6.64449">
        <ele>618</ele>
        <time>2011-06-13T09:37:54Z</time>
      </trkpt>
      <trkpt lat="47.9917" lon="6.64463">
        <ele>617</ele>
        <time>2011-06-13T09:38:04Z</time>
      </trkpt>
      <trkpt lat="47.99162" lon="6.64473">
        <ele>609</ele>
        <time>2011-06-13T09:38:14Z</time>
      </trkpt>
      <trkpt lat="47.99153" lon="6.64487">
        <ele>609</ele>
        <time>2011-06-13T09:38:25Z</time>
      </trkpt>
      <trkpt lat="47.99142" lon="6.645">
        <ele>608</ele>
        <time>2011-06-13T09:38:36Z</time>
      </trkpt>
      <trkpt lat="47.99136" lon="6.64513">
        <ele>610</ele>
        <time>2011-06-13T09:38:46Z</time>
      </trkpt>
      <trkpt lat="47.99128" lon="6.6453">
        <ele>611</ele>
        <time>2011-06-13T09:38:56Z</time>
      </trkpt>
      <trkpt lat="47.99124" lon="6.64552">
        <ele>620</ele>
        <time>2011-06-13T09:39:06Z</time>
      </trkpt>
      <trkpt lat="47.9913" lon="6.64584">
        <ele>626</ele>
        <time>2011-06-13T09:39:16Z</time>
      </trkpt>
      <trkpt lat="47.99144" lon="6.64641">
        <ele>635</ele>
        <time>2011-06-13T09:39:26Z</time>
      </trkpt>
      <trkpt lat="47.99184" lon="6.6468">
        <ele>628</ele>
        <time>2011-06-13T09:39:36Z</time>
      </trkpt>
      <trkpt lat="47.99251" lon="6.64696">
        <ele>618</ele>
        <time>2011-06-13T09:39:46Z</time>
      </trkpt>
      <trkpt lat="47.99337" lon="6.64746">
        <ele>614</ele>
        <time>2011-06-13T09:39:56Z</time>
      </trkpt>
      <trkpt lat="47.99411" lon="6.64834">
        <ele>607</ele>
        <time>2011-06-13T09:40:06Z</time>
      </trkpt>
      <trkpt lat="47.99468" lon="6.64938">
        <ele>594</ele>
        <time>2011-06-13T09:40:16Z</time>
      </trkpt>
      <trkpt lat="47.99504" lon="6.64918">
        <ele>583</ele>
        <time>2011-06-13T09:40:26Z</time>
      </trkpt>
      <trkpt lat="47.99553" lon="6.64901">
        <ele>575</ele>
        <time>2011-06-13T09:40:36Z</time>
      </trkpt>
      <trkpt lat="47.99585" lon="6.64993">
        <ele>569</ele>
        <time>2011-06-13T09:40:46Z</time>
      </trkpt>
      <trkpt lat="47.99607" lon="6.65095">
        <ele>566</ele>
        <time>2011-06-13T09:40:56Z</time>
      </trkpt>
      <trkpt lat="47.99636" lon="6.6519">
        <ele>561</ele>
        <time>2011-06-13T09:41:06Z</time>
      </trkpt>
      <trkpt lat="47.99606" lon="6.65285">
        <ele>561</ele>
        <time>2011-06-13T09:41:16Z</time>
      </trkpt>
      <trkpt lat="47.99594" lon="6.65382">
        <ele>560</ele>
        <time>2011-06-13T09:41:26Z</time>
      </trkpt>
      <trkpt lat="47.99562" lon="6.65459">
        <ele>559</ele>
        <time>2011-06-13T09:41:36Z</time>
      </trkpt>
      <trkpt lat="47.99497" lon="6.65486">
        <ele>559</ele>
        <time>2011-06-13T09:41:46Z</time>
      </trkpt>
      <trkpt lat="47.9951" lon="6.6559">
        <ele>559</ele>
        <time>2011-06-13T09:41:56Z</time>
      </trkpt>
      <trkpt lat="47.99533" lon="6.65694">
        <ele>554</ele>
        <time>2011-06-13T09:42:06Z</time>
      </trkpt>
      <trkpt lat="47.99482" lon="6.65793">
        <ele>549</ele>
        <time>2011-06-13T09:42:16Z</time>
      </trkpt>
      <trkpt lat="47.99545" lon="6.65808">
        <ele>555</ele>
        <time>2011-06-13T09:42:26Z</time>
      </trkpt>
      <trkpt lat="47.99638" lon="6.65827">
        <ele>547</ele>
        <time>2011-06-13T09:42:36Z</time>
      </trkpt>
      <trkpt lat="47.99758" lon="6.65879">
        <ele>530</ele>
        <time>2011-06-13T09:42:46Z</time>
      </trkpt>
      <trkpt lat="47.99848" lon="6.65877">
        <ele>512</ele>
        <time>2011-06-13T09:42:56Z</time>
      </trkpt>
      <trkpt lat="47.99838" lon="6.65866">
        <ele>499</ele>
        <time>2011-06-13T09:43:06Z</time>
      </trkpt>
      <trkpt lat="47.99815" lon="6.65882">
        <ele>492</ele>
        <time>2011-06-13T09:43:16Z</time>
      </trkpt>
      <trkpt lat="47.99777" lon="6.65863">
        <ele>492</ele>
        <time>2011-06-13T09:43:26Z</time>
      </trkpt>
      <trkpt lat="47.99743" lon="6.65829">
        <ele>493</ele>
        <time>2011-06-13T09:43:36Z</time>
      </trkpt>
      <trkpt lat="47.99725" lon="6.65779">
        <ele>497</ele>
        <time>2011-06-13T09:43:46Z</time>
      </trkpt>
      <trkpt lat="47.99714" lon="6.65729">
        <ele>500</ele>
        <time>2011-06-13T09:43:56Z</time>
      </trkpt>
      <trkpt lat="47.99712" lon="6.65628">
        <ele>500</ele>
        <time>2011-06-13T09:44:06Z</time>
      </trkpt>
      <trkpt lat="47.99703" lon="6.65582">
        <ele>500</ele>
        <time>2011-06-13T09:44:16Z</time>
      </trkpt>
      <trkpt lat="47.99681" lon="6.65561">
        <ele>500</ele>
        <time>2011-06-13T09:44:26Z</time>
      </trkpt>
      <trkpt lat="47.99681" lon="6.65533">
        <ele>500</ele>
        <time>2011-06-13T09:44:36Z</time>
      </trkpt>
      <trkpt lat="47.99689" lon="6.65502">
        <ele>503</ele>
        <time>2011-06-13T09:44:46Z</time>
      </trkpt>
      <trkpt lat="47.99696" lon="6.65466">
        <ele>506</ele>
        <time>2011-06-13T09:44:56Z</time>
      </trkpt>
      <trkpt lat="47.9971" lon="6.65435">
        <ele>510</ele>
        <time>2011-06-13T09:45:06Z</time>
      </trkpt>
      <trkpt lat="47.99723" lon="6.6538">
        <ele>510</ele>
        <time>2011-06-13T09:45:16Z</time>
      </trkpt>
      <trkpt lat="47.99764" lon="6.65295">
        <ele>509</ele>
        <time>2011-06-13T09:45:27Z</time>
      </trkpt>
      <trkpt lat="47.99772" lon="6.65209">
        <ele>504</ele>
        <time>2011-06-13T09:45:37Z</time>
      </trkpt>
      <trkpt lat="47.9978" lon="6.65191">
        <ele>504</ele>
        <time>2011-06-13T09:45:47Z</time>
      </trkpt>
      <trkpt lat="47.99771" lon="6.65125">
        <ele>498</ele>
        <time>2011-06-13T09:45:57Z</time>
      </trkpt>
      <trkpt lat="47.99741" lon="6.65059">
        <ele>478</ele>
        <time>2011-06-13T09:46:07Z</time>
      </trkpt>
      <trkpt lat="47.99735" lon="6.64971">
        <ele>471</ele>
        <time>2011-06-13T09:46:17Z</time>
      </trkpt>
      <trkpt lat="47.99746" lon="6.649">
        <ele>471</ele>
        <time>2011-06-13T09:46:27Z</time>
      </trkpt>
      <trkpt lat="47.99753" lon="6.64844">
        <ele>461</ele>
        <time>2011-06-13T09:46:37Z</time>
      </trkpt>
      <trkpt lat="47.99757" lon="6.64802">
        <ele>453</ele>
        <time>2011-06-13T09:46:47Z</time>
      </trkpt>
      <trkpt lat="47.99769" lon="6.64726">
        <ele>446</ele>
        <time>2011-06-13T09:46:57Z</time>
      </trkpt>
      <trkpt lat="47.99796" lon="6.6467">
        <ele>439</ele>
        <time>2011-06-13T09:47:07Z</time>
      </trkpt>
      <trkpt lat="47.99804" lon="6.6458">
        <ele>425</ele>
        <time>2011-06-13T09:47:17Z</time>
      </trkpt>
      <trkpt lat="47.99805" lon="6.64466">
        <ele>411</ele>
        <time>2011-06-13T09:47:27Z</time>
      </trkpt>
      <trkpt lat="47.99814" lon="6.64416">
        <ele>404</ele>
        <time>2011-06-13T09:47:37Z</time>
      </trkpt>
      <trkpt lat="47.99855" lon="6.64427">
        <ele>404</ele>
        <time>2011-06-13T09:47:47Z</time>
      </trkpt>
      <trkpt lat="47.99881" lon="6.64436">
        <ele>404</ele>
        <time>2011-06-13T09:47:57Z</time>
      </trkpt>
      <trkpt lat="47.99888" lon="6.64403">
        <ele>404</ele>
        <time>2011-06-13T09:48:10Z</time>
      </trkpt>
      <trkpt lat="47.99891" lon="6.64404">
        <ele>405</ele>
        <time>2011-06-13T09:48:21Z</time>
      </trkpt>
      <trkpt lat="47.99893" lon="6.6442">
        <ele>405</ele>
        <time>2011-06-13T09:48:31Z</time>
      </trkpt>
      <trkpt lat="47.99889" lon="6.64437">
        <ele>405</ele>
        <time>2011-06-13T09:48:48Z</time>
      </trkpt>
    </trkseg>
  </trk>
</gpx>